<?xml version="1.0" encoding="UTF-8" standalone="no" ?>
<gpx xmlns="http://www.topografix.com/GPX/1/1" xmlns:xsi="http://www.w3.org/2001/XMLSchema-instance" xsi:schemaLocation="http://www.topografix.com/GPX/1/1 http://www.topografix.com/GPX/1/1/gpx.xsd" version="1.1" creator="VisuGPX - https://www.visugpx.com">
  <metadata>
    <name>Lac de Saint Apollinaire</name>
    <desc><![CDATA[Boucle au départ de la station de Réallon]]></desc>
  </metadata>
  <trk>
    <name><![CDATA[2026-07-13_112024]]></name>
    <extensions>
      <line xmlns="http://www.topografix.com/GPX/gpx_style/0/2">
        <width>4</width>
      </line>
    </extensions>
    <trkseg>
      <trkpt lat="44.57578" lon="6.36238">
        <ele>1546.1</ele>
        <time>2026-07-13T09:20:24.000Z</time>
      </trkpt>
      <trkpt lat="44.57578" lon="6.36238">
        <ele>1546.1</ele>
        <time>2026-07-13T09:20:25.000Z</time>
      </trkpt>
      <trkpt lat="44.57578" lon="6.36237">
        <ele>1546.1</ele>
        <time>2026-07-13T09:20:32.000Z</time>
      </trkpt>
      <trkpt lat="44.57572" lon="6.36226">
        <ele>1546.2</ele>
        <time>2026-07-13T09:20:47.000Z</time>
      </trkpt>
      <trkpt lat="44.57569" lon="6.36213">
        <ele>1546.5</ele>
        <time>2026-07-13T09:20:57.000Z</time>
      </trkpt>
      <trkpt lat="44.57569" lon="6.36199">
        <ele>1547</ele>
        <time>2026-07-13T09:21:06.000Z</time>
      </trkpt>
      <trkpt lat="44.57568" lon="6.36185">
        <ele>1547.6</ele>
        <time>2026-07-13T09:21:13.000Z</time>
      </trkpt>
      <trkpt lat="44.57568" lon="6.36172">
        <ele>1548.2</ele>
        <time>2026-07-13T09:21:21.000Z</time>
      </trkpt>
      <trkpt lat="44.57569" lon="6.36158">
        <ele>1549</ele>
        <time>2026-07-13T09:21:30.000Z</time>
      </trkpt>
      <trkpt lat="44.5757" lon="6.36145">
        <ele>1549.9</ele>
        <time>2026-07-13T09:21:38.000Z</time>
      </trkpt>
      <trkpt lat="44.57572" lon="6.36133">
        <ele>1551</ele>
        <time>2026-07-13T09:21:47.000Z</time>
      </trkpt>
      <trkpt lat="44.57571" lon="6.3612">
        <ele>1552</ele>
        <time>2026-07-13T09:21:57.000Z</time>
      </trkpt>
      <trkpt lat="44.5757" lon="6.36107">
        <ele>1553.2</ele>
        <time>2026-07-13T09:22:05.000Z</time>
      </trkpt>
      <trkpt lat="44.57571" lon="6.36094">
        <ele>1554.2</ele>
        <time>2026-07-13T09:22:13.000Z</time>
      </trkpt>
      <trkpt lat="44.57577" lon="6.36084">
        <ele>1554.9</ele>
        <time>2026-07-13T09:22:22.000Z</time>
      </trkpt>
      <trkpt lat="44.57583" lon="6.36072">
        <ele>1556</ele>
        <time>2026-07-13T09:22:31.000Z</time>
      </trkpt>
      <trkpt lat="44.57585" lon="6.3606">
        <ele>1557.3</ele>
        <time>2026-07-13T09:22:41.000Z</time>
      </trkpt>
      <trkpt lat="44.57577" lon="6.36065">
        <ele>1558</ele>
        <time>2026-07-13T09:22:52.000Z</time>
      </trkpt>
      <trkpt lat="44.57569" lon="6.36074">
        <ele>1558.6</ele>
        <time>2026-07-13T09:23:00.000Z</time>
      </trkpt>
      <trkpt lat="44.57562" lon="6.36084">
        <ele>1559.3</ele>
        <time>2026-07-13T09:23:08.000Z</time>
      </trkpt>
      <trkpt lat="44.57555" lon="6.36093">
        <ele>1559.9</ele>
        <time>2026-07-13T09:23:16.000Z</time>
      </trkpt>
      <trkpt lat="44.57547" lon="6.36101">
        <ele>1560.7</ele>
        <time>2026-07-13T09:23:24.000Z</time>
      </trkpt>
      <trkpt lat="44.57542" lon="6.36112">
        <ele>1561.3</ele>
        <time>2026-07-13T09:23:30.000Z</time>
      </trkpt>
      <trkpt lat="44.57537" lon="6.36123">
        <ele>1561.9</ele>
        <time>2026-07-13T09:23:37.000Z</time>
      </trkpt>
      <trkpt lat="44.5753" lon="6.36133">
        <ele>1562.7</ele>
        <time>2026-07-13T09:23:45.000Z</time>
      </trkpt>
      <trkpt lat="44.57524" lon="6.36144">
        <ele>1563.3</ele>
        <time>2026-07-13T09:23:53.000Z</time>
      </trkpt>
      <trkpt lat="44.57519" lon="6.36154">
        <ele>1563.8</ele>
        <time>2026-07-13T09:24:01.000Z</time>
      </trkpt>
      <trkpt lat="44.57511" lon="6.36161">
        <ele>1564.3</ele>
        <time>2026-07-13T09:24:08.000Z</time>
      </trkpt>
      <trkpt lat="44.57504" lon="6.36169">
        <ele>1564.7</ele>
        <time>2026-07-13T09:24:16.000Z</time>
      </trkpt>
      <trkpt lat="44.57496" lon="6.36175">
        <ele>1565.3</ele>
        <time>2026-07-13T09:24:24.000Z</time>
      </trkpt>
      <trkpt lat="44.57487" lon="6.36183">
        <ele>1565.8</ele>
        <time>2026-07-13T09:24:31.000Z</time>
      </trkpt>
      <trkpt lat="44.5748" lon="6.36193">
        <ele>1566.5</ele>
        <time>2026-07-13T09:24:40.000Z</time>
      </trkpt>
      <trkpt lat="44.57474" lon="6.36203">
        <ele>1567.7</ele>
        <time>2026-07-13T09:24:51.000Z</time>
      </trkpt>
      <trkpt lat="44.57466" lon="6.3621">
        <ele>1568.3</ele>
        <time>2026-07-13T09:24:57.000Z</time>
      </trkpt>
      <trkpt lat="44.57459" lon="6.36219">
        <ele>1569.1</ele>
        <time>2026-07-13T09:25:05.000Z</time>
      </trkpt>
      <trkpt lat="44.57451" lon="6.36228">
        <ele>1569.5</ele>
        <time>2026-07-13T09:25:11.000Z</time>
      </trkpt>
      <trkpt lat="44.57446" lon="6.36239">
        <ele>1569.8</ele>
        <time>2026-07-13T09:25:19.000Z</time>
      </trkpt>
      <trkpt lat="44.57442" lon="6.36253">
        <ele>1570.2</ele>
        <time>2026-07-13T09:25:26.000Z</time>
      </trkpt>
      <trkpt lat="44.57437" lon="6.36265">
        <ele>1570.7</ele>
        <time>2026-07-13T09:25:34.000Z</time>
      </trkpt>
      <trkpt lat="44.57431" lon="6.36275">
        <ele>1571.2</ele>
        <time>2026-07-13T09:25:41.000Z</time>
      </trkpt>
      <trkpt lat="44.57428" lon="6.36287">
        <ele>1571.9</ele>
        <time>2026-07-13T09:25:48.000Z</time>
      </trkpt>
      <trkpt lat="44.57423" lon="6.363">
        <ele>1572.5</ele>
        <time>2026-07-13T09:25:57.000Z</time>
      </trkpt>
      <trkpt lat="44.57416" lon="6.3631">
        <ele>1573.1</ele>
        <time>2026-07-13T09:26:06.000Z</time>
      </trkpt>
      <trkpt lat="44.57409" lon="6.36317">
        <ele>1573.5</ele>
        <time>2026-07-13T09:26:12.000Z</time>
      </trkpt>
      <trkpt lat="44.574" lon="6.36324">
        <ele>1574.1</ele>
        <time>2026-07-13T09:26:19.000Z</time>
      </trkpt>
      <trkpt lat="44.57392" lon="6.36331">
        <ele>1574.5</ele>
        <time>2026-07-13T09:26:26.000Z</time>
      </trkpt>
      <trkpt lat="44.57384" lon="6.3634">
        <ele>1575.1</ele>
        <time>2026-07-13T09:26:34.000Z</time>
      </trkpt>
      <trkpt lat="44.57376" lon="6.36347">
        <ele>1575.5</ele>
        <time>2026-07-13T09:26:41.000Z</time>
      </trkpt>
      <trkpt lat="44.57369" lon="6.36356">
        <ele>1576.1</ele>
        <time>2026-07-13T09:26:49.000Z</time>
      </trkpt>
      <trkpt lat="44.57362" lon="6.36367">
        <ele>1576.6</ele>
        <time>2026-07-13T09:26:57.000Z</time>
      </trkpt>
      <trkpt lat="44.57355" lon="6.36377">
        <ele>1577.3</ele>
        <time>2026-07-13T09:27:05.000Z</time>
      </trkpt>
      <trkpt lat="44.57347" lon="6.36384">
        <ele>1578.2</ele>
        <time>2026-07-13T09:27:13.000Z</time>
      </trkpt>
      <trkpt lat="44.57338" lon="6.36386">
        <ele>1578.9</ele>
        <time>2026-07-13T09:27:19.000Z</time>
      </trkpt>
      <trkpt lat="44.57328" lon="6.36382">
        <ele>1579.7</ele>
        <time>2026-07-13T09:27:28.000Z</time>
      </trkpt>
      <trkpt lat="44.57318" lon="6.36385">
        <ele>1580.1</ele>
        <time>2026-07-13T09:27:35.000Z</time>
      </trkpt>
      <trkpt lat="44.5731" lon="6.36393">
        <ele>1580.9</ele>
        <time>2026-07-13T09:27:46.000Z</time>
      </trkpt>
      <trkpt lat="44.57301" lon="6.36399">
        <ele>1582.5</ele>
        <time>2026-07-13T09:27:59.000Z</time>
      </trkpt>
      <trkpt lat="44.57291" lon="6.36403">
        <ele>1583.4</ele>
        <time>2026-07-13T09:28:09.000Z</time>
      </trkpt>
      <trkpt lat="44.57282" lon="6.36403">
        <ele>1583.9</ele>
        <time>2026-07-13T09:28:18.000Z</time>
      </trkpt>
      <trkpt lat="44.57272" lon="6.36405">
        <ele>1584.7</ele>
        <time>2026-07-13T09:28:27.000Z</time>
      </trkpt>
      <trkpt lat="44.57263" lon="6.36409">
        <ele>1585.4</ele>
        <time>2026-07-13T09:28:35.000Z</time>
      </trkpt>
      <trkpt lat="44.57253" lon="6.36412">
        <ele>1586</ele>
        <time>2026-07-13T09:28:44.000Z</time>
      </trkpt>
      <trkpt lat="44.57244" lon="6.36416">
        <ele>1586.9</ele>
        <time>2026-07-13T09:28:52.000Z</time>
      </trkpt>
      <trkpt lat="44.57234" lon="6.36419">
        <ele>1587.6</ele>
        <time>2026-07-13T09:29:01.000Z</time>
      </trkpt>
      <trkpt lat="44.57224" lon="6.3642">
        <ele>1588</ele>
        <time>2026-07-13T09:29:09.000Z</time>
      </trkpt>
      <trkpt lat="44.57217" lon="6.36431">
        <ele>1588.3</ele>
        <time>2026-07-13T09:29:17.000Z</time>
      </trkpt>
      <trkpt lat="44.57212" lon="6.36442">
        <ele>1588.9</ele>
        <time>2026-07-13T09:29:23.000Z</time>
      </trkpt>
      <trkpt lat="44.5721" lon="6.36456">
        <ele>1589.5</ele>
        <time>2026-07-13T09:29:31.000Z</time>
      </trkpt>
      <trkpt lat="44.57204" lon="6.36467">
        <ele>1590.1</ele>
        <time>2026-07-13T09:29:39.000Z</time>
      </trkpt>
      <trkpt lat="44.57196" lon="6.36475">
        <ele>1590.8</ele>
        <time>2026-07-13T09:29:47.000Z</time>
      </trkpt>
      <trkpt lat="44.57187" lon="6.36479">
        <ele>1591.4</ele>
        <time>2026-07-13T09:29:55.000Z</time>
      </trkpt>
      <trkpt lat="44.57177" lon="6.36482">
        <ele>1591.9</ele>
        <time>2026-07-13T09:30:03.000Z</time>
      </trkpt>
      <trkpt lat="44.57168" lon="6.36488">
        <ele>1592.4</ele>
        <time>2026-07-13T09:30:12.000Z</time>
      </trkpt>
      <trkpt lat="44.57159" lon="6.36493">
        <ele>1593</ele>
        <time>2026-07-13T09:30:18.000Z</time>
      </trkpt>
      <trkpt lat="44.5715" lon="6.36498">
        <ele>1593.5</ele>
        <time>2026-07-13T09:30:26.000Z</time>
      </trkpt>
      <trkpt lat="44.57141" lon="6.36502">
        <ele>1594.2</ele>
        <time>2026-07-13T09:30:35.000Z</time>
      </trkpt>
      <trkpt lat="44.57132" lon="6.36507">
        <ele>1594.7</ele>
        <time>2026-07-13T09:30:43.000Z</time>
      </trkpt>
      <trkpt lat="44.57123" lon="6.36512">
        <ele>1595</ele>
        <time>2026-07-13T09:30:50.000Z</time>
      </trkpt>
      <trkpt lat="44.57114" lon="6.36515">
        <ele>1595.5</ele>
        <time>2026-07-13T09:30:58.000Z</time>
      </trkpt>
      <trkpt lat="44.57105" lon="6.36518">
        <ele>1595.7</ele>
        <time>2026-07-13T09:31:05.000Z</time>
      </trkpt>
      <trkpt lat="44.57096" lon="6.36518">
        <ele>1595.7</ele>
        <time>2026-07-13T09:31:13.000Z</time>
      </trkpt>
      <trkpt lat="44.57087" lon="6.36519">
        <ele>1595.6</ele>
        <time>2026-07-13T09:31:21.000Z</time>
      </trkpt>
      <trkpt lat="44.57077" lon="6.36517">
        <ele>1595.5</ele>
        <time>2026-07-13T09:31:30.000Z</time>
      </trkpt>
      <trkpt lat="44.57067" lon="6.36517">
        <ele>1595.3</ele>
        <time>2026-07-13T09:31:38.000Z</time>
      </trkpt>
      <trkpt lat="44.57058" lon="6.36516">
        <ele>1594.9</ele>
        <time>2026-07-13T09:31:46.000Z</time>
      </trkpt>
      <trkpt lat="44.57048" lon="6.36514">
        <ele>1594.2</ele>
        <time>2026-07-13T09:31:54.000Z</time>
      </trkpt>
      <trkpt lat="44.57039" lon="6.36514">
        <ele>1593.6</ele>
        <time>2026-07-13T09:32:02.000Z</time>
      </trkpt>
      <trkpt lat="44.57031" lon="6.36517">
        <ele>1593.2</ele>
        <time>2026-07-13T09:32:09.000Z</time>
      </trkpt>
      <trkpt lat="44.57021" lon="6.36517">
        <ele>1593</ele>
        <time>2026-07-13T09:32:17.000Z</time>
      </trkpt>
      <trkpt lat="44.57011" lon="6.36516">
        <ele>1593</ele>
        <time>2026-07-13T09:32:24.000Z</time>
      </trkpt>
      <trkpt lat="44.57002" lon="6.36516">
        <ele>1592.9</ele>
        <time>2026-07-13T09:32:31.000Z</time>
      </trkpt>
      <trkpt lat="44.56993" lon="6.36514">
        <ele>1592.8</ele>
        <time>2026-07-13T09:32:39.000Z</time>
      </trkpt>
      <trkpt lat="44.56983" lon="6.36511">
        <ele>1592.6</ele>
        <time>2026-07-13T09:32:47.000Z</time>
      </trkpt>
      <trkpt lat="44.56975" lon="6.36504">
        <ele>1592.2</ele>
        <time>2026-07-13T09:32:56.000Z</time>
      </trkpt>
      <trkpt lat="44.56966" lon="6.36496">
        <ele>1591.8</ele>
        <time>2026-07-13T09:33:03.000Z</time>
      </trkpt>
      <trkpt lat="44.56957" lon="6.3649">
        <ele>1591.4</ele>
        <time>2026-07-13T09:33:10.000Z</time>
      </trkpt>
      <trkpt lat="44.56949" lon="6.36483">
        <ele>1591.2</ele>
        <time>2026-07-13T09:33:19.000Z</time>
      </trkpt>
      <trkpt lat="44.56941" lon="6.36478">
        <ele>1591.1</ele>
        <time>2026-07-13T09:33:26.000Z</time>
      </trkpt>
      <trkpt lat="44.56932" lon="6.36472">
        <ele>1590.9</ele>
        <time>2026-07-13T09:33:33.000Z</time>
      </trkpt>
      <trkpt lat="44.56923" lon="6.36467">
        <ele>1590.7</ele>
        <time>2026-07-13T09:33:39.000Z</time>
      </trkpt>
      <trkpt lat="44.56914" lon="6.36464">
        <ele>1590.6</ele>
        <time>2026-07-13T09:33:45.000Z</time>
      </trkpt>
      <trkpt lat="44.56905" lon="6.36459">
        <ele>1590.4</ele>
        <time>2026-07-13T09:33:53.000Z</time>
      </trkpt>
      <trkpt lat="44.56895" lon="6.36457">
        <ele>1590</ele>
        <time>2026-07-13T09:34:02.000Z</time>
      </trkpt>
      <trkpt lat="44.56887" lon="6.36451">
        <ele>1589.5</ele>
        <time>2026-07-13T09:34:10.000Z</time>
      </trkpt>
      <trkpt lat="44.56879" lon="6.36444">
        <ele>1589.2</ele>
        <time>2026-07-13T09:34:18.000Z</time>
      </trkpt>
      <trkpt lat="44.5687" lon="6.36438">
        <ele>1589</ele>
        <time>2026-07-13T09:34:25.000Z</time>
      </trkpt>
      <trkpt lat="44.56861" lon="6.36431">
        <ele>1588.8</ele>
        <time>2026-07-13T09:34:33.000Z</time>
      </trkpt>
      <trkpt lat="44.56852" lon="6.36425">
        <ele>1588.8</ele>
        <time>2026-07-13T09:34:40.000Z</time>
      </trkpt>
      <trkpt lat="44.56843" lon="6.3642">
        <ele>1588.9</ele>
        <time>2026-07-13T09:34:46.000Z</time>
      </trkpt>
      <trkpt lat="44.56835" lon="6.36414">
        <ele>1589</ele>
        <time>2026-07-13T09:34:53.000Z</time>
      </trkpt>
      <trkpt lat="44.56827" lon="6.36408">
        <ele>1589.1</ele>
        <time>2026-07-13T09:35:01.000Z</time>
      </trkpt>
      <trkpt lat="44.56818" lon="6.36401">
        <ele>1589.3</ele>
        <time>2026-07-13T09:35:09.000Z</time>
      </trkpt>
      <trkpt lat="44.56809" lon="6.36396">
        <ele>1589.6</ele>
        <time>2026-07-13T09:35:16.000Z</time>
      </trkpt>
      <trkpt lat="44.56801" lon="6.36388">
        <ele>1589.9</ele>
        <time>2026-07-13T09:35:24.000Z</time>
      </trkpt>
      <trkpt lat="44.56794" lon="6.3638">
        <ele>1590.1</ele>
        <time>2026-07-13T09:35:32.000Z</time>
      </trkpt>
      <trkpt lat="44.56786" lon="6.36372">
        <ele>1590.2</ele>
        <time>2026-07-13T09:35:39.000Z</time>
      </trkpt>
      <trkpt lat="44.5678" lon="6.36363">
        <ele>1590.3</ele>
        <time>2026-07-13T09:35:47.000Z</time>
      </trkpt>
      <trkpt lat="44.56773" lon="6.36353">
        <ele>1590.5</ele>
        <time>2026-07-13T09:35:54.000Z</time>
      </trkpt>
      <trkpt lat="44.56767" lon="6.36343">
        <ele>1590.7</ele>
        <time>2026-07-13T09:36:02.000Z</time>
      </trkpt>
      <trkpt lat="44.5676" lon="6.36333">
        <ele>1591.1</ele>
        <time>2026-07-13T09:36:09.000Z</time>
      </trkpt>
      <trkpt lat="44.56754" lon="6.36324">
        <ele>1591.6</ele>
        <time>2026-07-13T09:36:17.000Z</time>
      </trkpt>
      <trkpt lat="44.56747" lon="6.36314">
        <ele>1592.2</ele>
        <time>2026-07-13T09:36:24.000Z</time>
      </trkpt>
      <trkpt lat="44.5674" lon="6.36305">
        <ele>1593.1</ele>
        <time>2026-07-13T09:36:32.000Z</time>
      </trkpt>
      <trkpt lat="44.56733" lon="6.36296">
        <ele>1593.8</ele>
        <time>2026-07-13T09:36:40.000Z</time>
      </trkpt>
      <trkpt lat="44.56725" lon="6.36287">
        <ele>1594.3</ele>
        <time>2026-07-13T09:36:47.000Z</time>
      </trkpt>
      <trkpt lat="44.56718" lon="6.3628">
        <ele>1595.1</ele>
        <time>2026-07-13T09:36:55.000Z</time>
      </trkpt>
      <trkpt lat="44.5671" lon="6.36273">
        <ele>1595.8</ele>
        <time>2026-07-13T09:37:04.000Z</time>
      </trkpt>
      <trkpt lat="44.56701" lon="6.36268">
        <ele>1596.3</ele>
        <time>2026-07-13T09:37:12.000Z</time>
      </trkpt>
      <trkpt lat="44.56692" lon="6.36264">
        <ele>1596.8</ele>
        <time>2026-07-13T09:37:22.000Z</time>
      </trkpt>
      <trkpt lat="44.56682" lon="6.36262">
        <ele>1597.1</ele>
        <time>2026-07-13T09:37:30.000Z</time>
      </trkpt>
      <trkpt lat="44.56672" lon="6.36259">
        <ele>1597.3</ele>
        <time>2026-07-13T09:37:38.000Z</time>
      </trkpt>
      <trkpt lat="44.56663" lon="6.36258">
        <ele>1597.6</ele>
        <time>2026-07-13T09:37:44.000Z</time>
      </trkpt>
      <trkpt lat="44.56652" lon="6.36257">
        <ele>1598</ele>
        <time>2026-07-13T09:37:51.000Z</time>
      </trkpt>
      <trkpt lat="44.56643" lon="6.36257">
        <ele>1598.3</ele>
        <time>2026-07-13T09:37:57.000Z</time>
      </trkpt>
      <trkpt lat="44.56634" lon="6.36254">
        <ele>1598.5</ele>
        <time>2026-07-13T09:38:03.000Z</time>
      </trkpt>
      <trkpt lat="44.56624" lon="6.36251">
        <ele>1598.5</ele>
        <time>2026-07-13T09:38:11.000Z</time>
      </trkpt>
      <trkpt lat="44.56616" lon="6.36245">
        <ele>1598.5</ele>
        <time>2026-07-13T09:38:18.000Z</time>
      </trkpt>
      <trkpt lat="44.56608" lon="6.36238">
        <ele>1598.4</ele>
        <time>2026-07-13T09:38:25.000Z</time>
      </trkpt>
      <trkpt lat="44.56602" lon="6.36228">
        <ele>1598.3</ele>
        <time>2026-07-13T09:38:32.000Z</time>
      </trkpt>
      <trkpt lat="44.56595" lon="6.36218">
        <ele>1598.2</ele>
        <time>2026-07-13T09:38:41.000Z</time>
      </trkpt>
      <trkpt lat="44.56589" lon="6.36208">
        <ele>1598</ele>
        <time>2026-07-13T09:38:47.000Z</time>
      </trkpt>
      <trkpt lat="44.56581" lon="6.36201">
        <ele>1597.8</ele>
        <time>2026-07-13T09:38:54.000Z</time>
      </trkpt>
      <trkpt lat="44.56573" lon="6.36193">
        <ele>1597.8</ele>
        <time>2026-07-13T09:39:01.000Z</time>
      </trkpt>
      <trkpt lat="44.56566" lon="6.36185">
        <ele>1597.7</ele>
        <time>2026-07-13T09:39:08.000Z</time>
      </trkpt>
      <trkpt lat="44.56559" lon="6.36175">
        <ele>1597.7</ele>
        <time>2026-07-13T09:39:15.000Z</time>
      </trkpt>
      <trkpt lat="44.56552" lon="6.36164">
        <ele>1597.7</ele>
        <time>2026-07-13T09:39:23.000Z</time>
      </trkpt>
      <trkpt lat="44.56545" lon="6.36156">
        <ele>1597.7</ele>
        <time>2026-07-13T09:39:29.000Z</time>
      </trkpt>
      <trkpt lat="44.56537" lon="6.36147">
        <ele>1597.7</ele>
        <time>2026-07-13T09:39:36.000Z</time>
      </trkpt>
      <trkpt lat="44.56531" lon="6.36136">
        <ele>1597.7</ele>
        <time>2026-07-13T09:39:45.000Z</time>
      </trkpt>
      <trkpt lat="44.56526" lon="6.36124">
        <ele>1597.7</ele>
        <time>2026-07-13T09:39:52.000Z</time>
      </trkpt>
      <trkpt lat="44.56521" lon="6.36113">
        <ele>1597.7</ele>
        <time>2026-07-13T09:39:59.000Z</time>
      </trkpt>
      <trkpt lat="44.56518" lon="6.36101">
        <ele>1597.7</ele>
        <time>2026-07-13T09:40:06.000Z</time>
      </trkpt>
      <trkpt lat="44.56514" lon="6.36088">
        <ele>1597.7</ele>
        <time>2026-07-13T09:40:13.000Z</time>
      </trkpt>
      <trkpt lat="44.5651" lon="6.36076">
        <ele>1597.7</ele>
        <time>2026-07-13T09:40:20.000Z</time>
      </trkpt>
      <trkpt lat="44.56507" lon="6.36062">
        <ele>1597.7</ele>
        <time>2026-07-13T09:40:29.000Z</time>
      </trkpt>
      <trkpt lat="44.56503" lon="6.3605">
        <ele>1597.7</ele>
        <time>2026-07-13T09:40:36.000Z</time>
      </trkpt>
      <trkpt lat="44.565" lon="6.36038">
        <ele>1597.7</ele>
        <time>2026-07-13T09:40:44.000Z</time>
      </trkpt>
      <trkpt lat="44.56498" lon="6.36025">
        <ele>1597.6</ele>
        <time>2026-07-13T09:40:51.000Z</time>
      </trkpt>
      <trkpt lat="44.56495" lon="6.36011">
        <ele>1597.7</ele>
        <time>2026-07-13T09:41:00.000Z</time>
      </trkpt>
      <trkpt lat="44.56494" lon="6.35998">
        <ele>1597.7</ele>
        <time>2026-07-13T09:41:06.000Z</time>
      </trkpt>
      <trkpt lat="44.56493" lon="6.35985">
        <ele>1597.7</ele>
        <time>2026-07-13T09:41:13.000Z</time>
      </trkpt>
      <trkpt lat="44.56494" lon="6.3597">
        <ele>1597.7</ele>
        <time>2026-07-13T09:41:22.000Z</time>
      </trkpt>
      <trkpt lat="44.56494" lon="6.35956">
        <ele>1597.7</ele>
        <time>2026-07-13T09:41:29.000Z</time>
      </trkpt>
      <trkpt lat="44.56495" lon="6.35942">
        <ele>1597.7</ele>
        <time>2026-07-13T09:41:37.000Z</time>
      </trkpt>
      <trkpt lat="44.56494" lon="6.35929">
        <ele>1597.7</ele>
        <time>2026-07-13T09:41:43.000Z</time>
      </trkpt>
      <trkpt lat="44.56492" lon="6.35915">
        <ele>1597.7</ele>
        <time>2026-07-13T09:41:50.000Z</time>
      </trkpt>
      <trkpt lat="44.56492" lon="6.35901">
        <ele>1597.7</ele>
        <time>2026-07-13T09:41:59.000Z</time>
      </trkpt>
      <trkpt lat="44.5649" lon="6.35887">
        <ele>1597.7</ele>
        <time>2026-07-13T09:42:06.000Z</time>
      </trkpt>
      <trkpt lat="44.56491" lon="6.35873">
        <ele>1597.7</ele>
        <time>2026-07-13T09:42:15.000Z</time>
      </trkpt>
      <trkpt lat="44.56495" lon="6.35859">
        <ele>1597.7</ele>
        <time>2026-07-13T09:42:22.000Z</time>
      </trkpt>
      <trkpt lat="44.56499" lon="6.35847">
        <ele>1597.7</ele>
        <time>2026-07-13T09:42:30.000Z</time>
      </trkpt>
      <trkpt lat="44.56503" lon="6.35834">
        <ele>1597.7</ele>
        <time>2026-07-13T09:42:37.000Z</time>
      </trkpt>
      <trkpt lat="44.56508" lon="6.35823">
        <ele>1597.6</ele>
        <time>2026-07-13T09:42:45.000Z</time>
      </trkpt>
      <trkpt lat="44.56515" lon="6.35813">
        <ele>1597.6</ele>
        <time>2026-07-13T09:42:52.000Z</time>
      </trkpt>
      <trkpt lat="44.56519" lon="6.35802">
        <ele>1597.5</ele>
        <time>2026-07-13T09:42:59.000Z</time>
      </trkpt>
      <trkpt lat="44.56523" lon="6.3579">
        <ele>1597.4</ele>
        <time>2026-07-13T09:43:07.000Z</time>
      </trkpt>
      <trkpt lat="44.56525" lon="6.35777">
        <ele>1597.4</ele>
        <time>2026-07-13T09:43:14.000Z</time>
      </trkpt>
      <trkpt lat="44.56527" lon="6.35764">
        <ele>1597.3</ele>
        <time>2026-07-13T09:43:22.000Z</time>
      </trkpt>
      <trkpt lat="44.5653" lon="6.3575">
        <ele>1597.3</ele>
        <time>2026-07-13T09:43:30.000Z</time>
      </trkpt>
      <trkpt lat="44.56532" lon="6.35736">
        <ele>1597.3</ele>
        <time>2026-07-13T09:43:39.000Z</time>
      </trkpt>
      <trkpt lat="44.56533" lon="6.35721">
        <ele>1597.3</ele>
        <time>2026-07-13T09:43:46.000Z</time>
      </trkpt>
      <trkpt lat="44.56534" lon="6.35707">
        <ele>1597.2</ele>
        <time>2026-07-13T09:43:55.000Z</time>
      </trkpt>
      <trkpt lat="44.56532" lon="6.35694">
        <ele>1597.2</ele>
        <time>2026-07-13T09:44:03.000Z</time>
      </trkpt>
      <trkpt lat="44.56529" lon="6.35681">
        <ele>1597.2</ele>
        <time>2026-07-13T09:44:10.000Z</time>
      </trkpt>
      <trkpt lat="44.56527" lon="6.35667">
        <ele>1597.3</ele>
        <time>2026-07-13T09:44:17.000Z</time>
      </trkpt>
      <trkpt lat="44.56525" lon="6.35655">
        <ele>1597.4</ele>
        <time>2026-07-13T09:44:25.000Z</time>
      </trkpt>
      <trkpt lat="44.56523" lon="6.3564">
        <ele>1597.5</ele>
        <time>2026-07-13T09:44:33.000Z</time>
      </trkpt>
      <trkpt lat="44.56523" lon="6.35626">
        <ele>1597.7</ele>
        <time>2026-07-13T09:44:42.000Z</time>
      </trkpt>
      <trkpt lat="44.56525" lon="6.35613">
        <ele>1597.8</ele>
        <time>2026-07-13T09:44:49.000Z</time>
      </trkpt>
      <trkpt lat="44.56529" lon="6.35601">
        <ele>1597.8</ele>
        <time>2026-07-13T09:44:58.000Z</time>
      </trkpt>
      <trkpt lat="44.56532" lon="6.35587">
        <ele>1597.8</ele>
        <time>2026-07-13T09:45:06.000Z</time>
      </trkpt>
      <trkpt lat="44.56537" lon="6.35575">
        <ele>1597.9</ele>
        <time>2026-07-13T09:45:14.000Z</time>
      </trkpt>
      <trkpt lat="44.5654" lon="6.35562">
        <ele>1597.9</ele>
        <time>2026-07-13T09:45:21.000Z</time>
      </trkpt>
      <trkpt lat="44.56543" lon="6.3555">
        <ele>1598</ele>
        <time>2026-07-13T09:45:29.000Z</time>
      </trkpt>
      <trkpt lat="44.56546" lon="6.35537">
        <ele>1598</ele>
        <time>2026-07-13T09:45:36.000Z</time>
      </trkpt>
      <trkpt lat="44.56548" lon="6.35524">
        <ele>1597.9</ele>
        <time>2026-07-13T09:45:44.000Z</time>
      </trkpt>
      <trkpt lat="44.56548" lon="6.3551">
        <ele>1597.9</ele>
        <time>2026-07-13T09:45:52.000Z</time>
      </trkpt>
      <trkpt lat="44.56547" lon="6.35497">
        <ele>1597.9</ele>
        <time>2026-07-13T09:45:59.000Z</time>
      </trkpt>
      <trkpt lat="44.56546" lon="6.35483">
        <ele>1598.1</ele>
        <time>2026-07-13T09:46:23.000Z</time>
      </trkpt>
      <trkpt lat="44.56549" lon="6.35471">
        <ele>1598.3</ele>
        <time>2026-07-13T09:46:31.000Z</time>
      </trkpt>
      <trkpt lat="44.56555" lon="6.35459">
        <ele>1598.7</ele>
        <time>2026-07-13T09:46:39.000Z</time>
      </trkpt>
      <trkpt lat="44.56559" lon="6.35448">
        <ele>1599</ele>
        <time>2026-07-13T09:46:46.000Z</time>
      </trkpt>
      <trkpt lat="44.56565" lon="6.35436">
        <ele>1599.3</ele>
        <time>2026-07-13T09:46:55.000Z</time>
      </trkpt>
      <trkpt lat="44.56571" lon="6.35426">
        <ele>1599.6</ele>
        <time>2026-07-13T09:47:03.000Z</time>
      </trkpt>
      <trkpt lat="44.56575" lon="6.35413">
        <ele>1600</ele>
        <time>2026-07-13T09:47:11.000Z</time>
      </trkpt>
      <trkpt lat="44.56578" lon="6.35399">
        <ele>1600.3</ele>
        <time>2026-07-13T09:47:19.000Z</time>
      </trkpt>
      <trkpt lat="44.56581" lon="6.35385">
        <ele>1600.5</ele>
        <time>2026-07-13T09:47:26.000Z</time>
      </trkpt>
      <trkpt lat="44.56585" lon="6.35373">
        <ele>1600.9</ele>
        <time>2026-07-13T09:47:34.000Z</time>
      </trkpt>
      <trkpt lat="44.5659" lon="6.3536">
        <ele>1601.4</ele>
        <time>2026-07-13T09:47:41.000Z</time>
      </trkpt>
      <trkpt lat="44.56595" lon="6.35347">
        <ele>1601.9</ele>
        <time>2026-07-13T09:47:49.000Z</time>
      </trkpt>
      <trkpt lat="44.566" lon="6.35336">
        <ele>1602.4</ele>
        <time>2026-07-13T09:47:57.000Z</time>
      </trkpt>
      <trkpt lat="44.56603" lon="6.35323">
        <ele>1602.6</ele>
        <time>2026-07-13T09:48:03.000Z</time>
      </trkpt>
      <trkpt lat="44.56605" lon="6.3531">
        <ele>1603.1</ele>
        <time>2026-07-13T09:48:11.000Z</time>
      </trkpt>
      <trkpt lat="44.5661" lon="6.35298">
        <ele>1603.5</ele>
        <time>2026-07-13T09:48:18.000Z</time>
      </trkpt>
      <trkpt lat="44.56613" lon="6.35285">
        <ele>1604</ele>
        <time>2026-07-13T09:48:27.000Z</time>
      </trkpt>
      <trkpt lat="44.56613" lon="6.3527">
        <ele>1604.4</ele>
        <time>2026-07-13T09:48:36.000Z</time>
      </trkpt>
      <trkpt lat="44.56613" lon="6.35258">
        <ele>1604.9</ele>
        <time>2026-07-13T09:48:44.000Z</time>
      </trkpt>
      <trkpt lat="44.56617" lon="6.35245">
        <ele>1605.2</ele>
        <time>2026-07-13T09:48:51.000Z</time>
      </trkpt>
      <trkpt lat="44.56622" lon="6.35233">
        <ele>1605.5</ele>
        <time>2026-07-13T09:48:59.000Z</time>
      </trkpt>
      <trkpt lat="44.56628" lon="6.35224">
        <ele>1605.7</ele>
        <time>2026-07-13T09:49:06.000Z</time>
      </trkpt>
      <trkpt lat="44.56637" lon="6.3522">
        <ele>1606</ele>
        <time>2026-07-13T09:49:13.000Z</time>
      </trkpt>
      <trkpt lat="44.56646" lon="6.35213">
        <ele>1606.5</ele>
        <time>2026-07-13T09:49:21.000Z</time>
      </trkpt>
      <trkpt lat="44.56654" lon="6.35207">
        <ele>1606.8</ele>
        <time>2026-07-13T09:49:28.000Z</time>
      </trkpt>
      <trkpt lat="44.56662" lon="6.35199">
        <ele>1607</ele>
        <time>2026-07-13T09:49:37.000Z</time>
      </trkpt>
      <trkpt lat="44.56668" lon="6.35186">
        <ele>1606.9</ele>
        <time>2026-07-13T09:49:45.000Z</time>
      </trkpt>
      <trkpt lat="44.56673" lon="6.35174">
        <ele>1606.9</ele>
        <time>2026-07-13T09:49:54.000Z</time>
      </trkpt>
      <trkpt lat="44.56676" lon="6.35162">
        <ele>1607.4</ele>
        <time>2026-07-13T09:50:02.000Z</time>
      </trkpt>
      <trkpt lat="44.56678" lon="6.35149">
        <ele>1608.7</ele>
        <time>2026-07-13T09:50:10.000Z</time>
      </trkpt>
      <trkpt lat="44.56679" lon="6.35135">
        <ele>1610.1</ele>
        <time>2026-07-13T09:50:19.000Z</time>
      </trkpt>
      <trkpt lat="44.56678" lon="6.35121">
        <ele>1611.1</ele>
        <time>2026-07-13T09:50:27.000Z</time>
      </trkpt>
      <trkpt lat="44.56677" lon="6.35108">
        <ele>1611.6</ele>
        <time>2026-07-13T09:50:34.000Z</time>
      </trkpt>
      <trkpt lat="44.56675" lon="6.35094">
        <ele>1611.9</ele>
        <time>2026-07-13T09:50:41.000Z</time>
      </trkpt>
      <trkpt lat="44.56675" lon="6.3508">
        <ele>1612.1</ele>
        <time>2026-07-13T09:50:49.000Z</time>
      </trkpt>
      <trkpt lat="44.56681" lon="6.3507">
        <ele>1612.4</ele>
        <time>2026-07-13T09:50:56.000Z</time>
      </trkpt>
      <trkpt lat="44.56689" lon="6.35062">
        <ele>1612.7</ele>
        <time>2026-07-13T09:51:04.000Z</time>
      </trkpt>
      <trkpt lat="44.56696" lon="6.35055">
        <ele>1612.9</ele>
        <time>2026-07-13T09:51:11.000Z</time>
      </trkpt>
      <trkpt lat="44.56703" lon="6.35047">
        <ele>1613.3</ele>
        <time>2026-07-13T09:51:19.000Z</time>
      </trkpt>
      <trkpt lat="44.56711" lon="6.35039">
        <ele>1613.7</ele>
        <time>2026-07-13T09:51:26.000Z</time>
      </trkpt>
      <trkpt lat="44.56718" lon="6.3503">
        <ele>1614.2</ele>
        <time>2026-07-13T09:51:34.000Z</time>
      </trkpt>
      <trkpt lat="44.56723" lon="6.35019">
        <ele>1614.7</ele>
        <time>2026-07-13T09:51:41.000Z</time>
      </trkpt>
      <trkpt lat="44.5673" lon="6.3501">
        <ele>1615.2</ele>
        <time>2026-07-13T09:51:48.000Z</time>
      </trkpt>
      <trkpt lat="44.56737" lon="6.35001">
        <ele>1615.6</ele>
        <time>2026-07-13T09:51:55.000Z</time>
      </trkpt>
      <trkpt lat="44.56745" lon="6.34994">
        <ele>1616</ele>
        <time>2026-07-13T09:52:03.000Z</time>
      </trkpt>
      <trkpt lat="44.5675" lon="6.34983">
        <ele>1616.5</ele>
        <time>2026-07-13T09:52:11.000Z</time>
      </trkpt>
      <trkpt lat="44.56756" lon="6.34972">
        <ele>1616.9</ele>
        <time>2026-07-13T09:52:18.000Z</time>
      </trkpt>
      <trkpt lat="44.56762" lon="6.34962">
        <ele>1617.2</ele>
        <time>2026-07-13T09:52:26.000Z</time>
      </trkpt>
      <trkpt lat="44.56769" lon="6.34951">
        <ele>1617.6</ele>
        <time>2026-07-13T09:52:34.000Z</time>
      </trkpt>
      <trkpt lat="44.56774" lon="6.3494">
        <ele>1618.2</ele>
        <time>2026-07-13T09:52:42.000Z</time>
      </trkpt>
      <trkpt lat="44.56775" lon="6.34926">
        <ele>1618.9</ele>
        <time>2026-07-13T09:52:51.000Z</time>
      </trkpt>
      <trkpt lat="44.56773" lon="6.34914">
        <ele>1619.7</ele>
        <time>2026-07-13T09:52:59.000Z</time>
      </trkpt>
      <trkpt lat="44.56767" lon="6.34901">
        <ele>1620.6</ele>
        <time>2026-07-13T09:53:08.000Z</time>
      </trkpt>
      <trkpt lat="44.56761" lon="6.34891">
        <ele>1621.5</ele>
        <time>2026-07-13T09:53:16.000Z</time>
      </trkpt>
      <trkpt lat="44.56754" lon="6.34882">
        <ele>1622.6</ele>
        <time>2026-07-13T09:53:25.000Z</time>
      </trkpt>
      <trkpt lat="44.56746" lon="6.34874">
        <ele>1623.8</ele>
        <time>2026-07-13T09:53:35.000Z</time>
      </trkpt>
      <trkpt lat="44.56738" lon="6.34867">
        <ele>1624.8</ele>
        <time>2026-07-13T09:53:44.000Z</time>
      </trkpt>
      <trkpt lat="44.5673" lon="6.34859">
        <ele>1626</ele>
        <time>2026-07-13T09:53:55.000Z</time>
      </trkpt>
      <trkpt lat="44.56723" lon="6.34851">
        <ele>1626.9</ele>
        <time>2026-07-13T09:54:04.000Z</time>
      </trkpt>
      <trkpt lat="44.56716" lon="6.34842">
        <ele>1627.6</ele>
        <time>2026-07-13T09:54:12.000Z</time>
      </trkpt>
      <trkpt lat="44.56711" lon="6.34831">
        <ele>1628.4</ele>
        <time>2026-07-13T09:54:22.000Z</time>
      </trkpt>
      <trkpt lat="44.56704" lon="6.34821">
        <ele>1629.2</ele>
        <time>2026-07-13T09:54:30.000Z</time>
      </trkpt>
      <trkpt lat="44.56699" lon="6.34808">
        <ele>1630</ele>
        <time>2026-07-13T09:54:38.000Z</time>
      </trkpt>
      <trkpt lat="44.56697" lon="6.34794">
        <ele>1630.9</ele>
        <time>2026-07-13T09:54:47.000Z</time>
      </trkpt>
      <trkpt lat="44.56698" lon="6.34782">
        <ele>1632.2</ele>
        <time>2026-07-13T09:55:03.000Z</time>
      </trkpt>
      <trkpt lat="44.56698" lon="6.34781">
        <ele>1632.5</ele>
        <time>2026-07-13T09:55:10.000Z</time>
      </trkpt>
      <trkpt lat="44.56698" lon="6.34781">
        <ele>1632.5</ele>
        <time>2026-07-13T09:55:12.000Z</time>
      </trkpt>
      <trkpt lat="44.56698" lon="6.34779">
        <ele>1632.6</ele>
        <time>2026-07-13T09:55:27.000Z</time>
      </trkpt>
      <trkpt lat="44.56698" lon="6.34778">
        <ele>1632.6</ele>
        <time>2026-07-13T09:55:46.000Z</time>
      </trkpt>
      <trkpt lat="44.56697" lon="6.34779">
        <ele>1632.6</ele>
        <time>2026-07-13T09:56:22.000Z</time>
      </trkpt>
      <trkpt lat="44.56697" lon="6.34779">
        <ele>1632.6</ele>
        <time>2026-07-13T09:56:24.000Z</time>
      </trkpt>
      <trkpt lat="44.56701" lon="6.34766">
        <ele>1632.7</ele>
        <time>2026-07-13T09:56:37.000Z</time>
      </trkpt>
      <trkpt lat="44.567" lon="6.34753">
        <ele>1632.9</ele>
        <time>2026-07-13T09:56:46.000Z</time>
      </trkpt>
      <trkpt lat="44.56698" lon="6.34741">
        <ele>1633.2</ele>
        <time>2026-07-13T09:56:54.000Z</time>
      </trkpt>
      <trkpt lat="44.56693" lon="6.34729">
        <ele>1633.9</ele>
        <time>2026-07-13T09:57:03.000Z</time>
      </trkpt>
      <trkpt lat="44.56689" lon="6.34717">
        <ele>1634.9</ele>
        <time>2026-07-13T09:57:11.000Z</time>
      </trkpt>
      <trkpt lat="44.56689" lon="6.34703">
        <ele>1635.9</ele>
        <time>2026-07-13T09:57:19.000Z</time>
      </trkpt>
      <trkpt lat="44.56691" lon="6.3469">
        <ele>1636.6</ele>
        <time>2026-07-13T09:57:27.000Z</time>
      </trkpt>
      <trkpt lat="44.56694" lon="6.34678">
        <ele>1637.6</ele>
        <time>2026-07-13T09:57:37.000Z</time>
      </trkpt>
      <trkpt lat="44.56702" lon="6.3467">
        <ele>1638.8</ele>
        <time>2026-07-13T09:57:46.000Z</time>
      </trkpt>
      <trkpt lat="44.56711" lon="6.34663">
        <ele>1639.6</ele>
        <time>2026-07-13T09:57:56.000Z</time>
      </trkpt>
      <trkpt lat="44.56718" lon="6.34654">
        <ele>1640.5</ele>
        <time>2026-07-13T09:58:05.000Z</time>
      </trkpt>
      <trkpt lat="44.56725" lon="6.34646">
        <ele>1641.1</ele>
        <time>2026-07-13T09:58:15.000Z</time>
      </trkpt>
      <trkpt lat="44.56716" lon="6.34646">
        <ele>1641.4</ele>
        <time>2026-07-13T09:58:41.000Z</time>
      </trkpt>
      <trkpt lat="44.56708" lon="6.34653">
        <ele>1640.1</ele>
        <time>2026-07-13T09:58:52.000Z</time>
      </trkpt>
      <trkpt lat="44.56699" lon="6.34658">
        <ele>1638.4</ele>
        <time>2026-07-13T09:59:03.000Z</time>
      </trkpt>
      <trkpt lat="44.56691" lon="6.34662">
        <ele>1636.6</ele>
        <time>2026-07-13T09:59:15.000Z</time>
      </trkpt>
      <trkpt lat="44.56682" lon="6.34667">
        <ele>1634.4</ele>
        <time>2026-07-13T09:59:29.000Z</time>
      </trkpt>
      <trkpt lat="44.56673" lon="6.34669">
        <ele>1632.8</ele>
        <time>2026-07-13T09:59:38.000Z</time>
      </trkpt>
      <trkpt lat="44.56663" lon="6.34671">
        <ele>1629.9</ele>
        <time>2026-07-13T09:59:52.000Z</time>
      </trkpt>
      <trkpt lat="44.56654" lon="6.34669">
        <ele>1627.9</ele>
        <time>2026-07-13T10:00:03.000Z</time>
      </trkpt>
      <trkpt lat="44.56645" lon="6.34669">
        <ele>1625.4</ele>
        <time>2026-07-13T10:00:16.000Z</time>
      </trkpt>
      <trkpt lat="44.56639" lon="6.34679">
        <ele>1622.8</ele>
        <time>2026-07-13T10:00:30.000Z</time>
      </trkpt>
      <trkpt lat="44.56629" lon="6.34677">
        <ele>1620.2</ele>
        <time>2026-07-13T10:00:50.000Z</time>
      </trkpt>
      <trkpt lat="44.56637" lon="6.34685">
        <ele>1618.8</ele>
        <time>2026-07-13T10:01:28.000Z</time>
      </trkpt>
      <trkpt lat="44.56644" lon="6.34695">
        <ele>1620.4</ele>
        <time>2026-07-13T10:01:40.000Z</time>
      </trkpt>
      <trkpt lat="44.56636" lon="6.34687">
        <ele>1622</ele>
        <time>2026-07-13T10:02:01.000Z</time>
      </trkpt>
      <trkpt lat="44.5663" lon="6.34677">
        <ele>1621</ele>
        <time>2026-07-13T10:02:12.000Z</time>
      </trkpt>
      <trkpt lat="44.56624" lon="6.34687">
        <ele>1619.1</ele>
        <time>2026-07-13T10:02:24.000Z</time>
      </trkpt>
      <trkpt lat="44.56618" lon="6.34697">
        <ele>1617.5</ele>
        <time>2026-07-13T10:02:34.000Z</time>
      </trkpt>
      <trkpt lat="44.56609" lon="6.34703">
        <ele>1615.1</ele>
        <time>2026-07-13T10:02:48.000Z</time>
      </trkpt>
      <trkpt lat="44.56601" lon="6.3471">
        <ele>1612.2</ele>
        <time>2026-07-13T10:03:01.000Z</time>
      </trkpt>
      <trkpt lat="44.56596" lon="6.34717">
        <ele>1608.8</ele>
        <time>2026-07-13T10:03:27.000Z</time>
      </trkpt>
      <trkpt lat="44.56594" lon="6.34715">
        <ele>1608.7</ele>
        <time>2026-07-13T10:03:30.000Z</time>
      </trkpt>
      <trkpt lat="44.56585" lon="6.34712">
        <ele>1607.9</ele>
        <time>2026-07-13T10:03:46.000Z</time>
      </trkpt>
      <trkpt lat="44.56575" lon="6.34712">
        <ele>1606.1</ele>
        <time>2026-07-13T10:03:57.000Z</time>
      </trkpt>
      <trkpt lat="44.56566" lon="6.3471">
        <ele>1603.9</ele>
        <time>2026-07-13T10:04:07.000Z</time>
      </trkpt>
      <trkpt lat="44.56558" lon="6.34717">
        <ele>1601.8</ele>
        <time>2026-07-13T10:04:17.000Z</time>
      </trkpt>
      <trkpt lat="44.56551" lon="6.34724">
        <ele>1599.1</ele>
        <time>2026-07-13T10:04:44.000Z</time>
      </trkpt>
      <trkpt lat="44.56554" lon="6.34726">
        <ele>1598.8</ele>
        <time>2026-07-13T10:05:00.000Z</time>
      </trkpt>
      <trkpt lat="44.56553" lon="6.34739">
        <ele>1597.3</ele>
        <time>2026-07-13T10:05:17.000Z</time>
      </trkpt>
      <trkpt lat="44.5655" lon="6.34751">
        <ele>1594.1</ele>
        <time>2026-07-13T10:05:30.000Z</time>
      </trkpt>
      <trkpt lat="44.5655" lon="6.34765">
        <ele>1591.8</ele>
        <time>2026-07-13T10:05:41.000Z</time>
      </trkpt>
      <trkpt lat="44.56555" lon="6.34777">
        <ele>1590.3</ele>
        <time>2026-07-13T10:05:51.000Z</time>
      </trkpt>
      <trkpt lat="44.5656" lon="6.34788">
        <ele>1589</ele>
        <time>2026-07-13T10:06:01.000Z</time>
      </trkpt>
      <trkpt lat="44.56562" lon="6.34801">
        <ele>1586.9</ele>
        <time>2026-07-13T10:06:13.000Z</time>
      </trkpt>
      <trkpt lat="44.56561" lon="6.34814">
        <ele>1585.5</ele>
        <time>2026-07-13T10:06:21.000Z</time>
      </trkpt>
      <trkpt lat="44.56562" lon="6.34827">
        <ele>1583.6</ele>
        <time>2026-07-13T10:06:30.000Z</time>
      </trkpt>
      <trkpt lat="44.56558" lon="6.3484">
        <ele>1581.8</ele>
        <time>2026-07-13T10:06:40.000Z</time>
      </trkpt>
      <trkpt lat="44.56556" lon="6.34853">
        <ele>1580</ele>
        <time>2026-07-13T10:06:49.000Z</time>
      </trkpt>
      <trkpt lat="44.56548" lon="6.34859">
        <ele>1575.9</ele>
        <time>2026-07-13T10:07:06.000Z</time>
      </trkpt>
      <trkpt lat="44.5654" lon="6.34854">
        <ele>1574.5</ele>
        <time>2026-07-13T10:07:14.000Z</time>
      </trkpt>
      <trkpt lat="44.56531" lon="6.34849">
        <ele>1573.4</ele>
        <time>2026-07-13T10:07:22.000Z</time>
      </trkpt>
      <trkpt lat="44.56523" lon="6.34842">
        <ele>1572</ele>
        <time>2026-07-13T10:07:31.000Z</time>
      </trkpt>
      <trkpt lat="44.56515" lon="6.34834">
        <ele>1570.1</ele>
        <time>2026-07-13T10:07:40.000Z</time>
      </trkpt>
      <trkpt lat="44.56509" lon="6.34823">
        <ele>1568.9</ele>
        <time>2026-07-13T10:07:48.000Z</time>
      </trkpt>
      <trkpt lat="44.565" lon="6.34815">
        <ele>1568.1</ele>
        <time>2026-07-13T10:07:57.000Z</time>
      </trkpt>
      <trkpt lat="44.56498" lon="6.34802">
        <ele>1567.4</ele>
        <time>2026-07-13T10:08:05.000Z</time>
      </trkpt>
      <trkpt lat="44.56501" lon="6.3479">
        <ele>1566.3</ele>
        <time>2026-07-13T10:08:14.000Z</time>
      </trkpt>
      <trkpt lat="44.56502" lon="6.34776">
        <ele>1564.9</ele>
        <time>2026-07-13T10:08:23.000Z</time>
      </trkpt>
      <trkpt lat="44.56497" lon="6.34766">
        <ele>1563.1</ele>
        <time>2026-07-13T10:08:34.000Z</time>
      </trkpt>
      <trkpt lat="44.56488" lon="6.34771">
        <ele>1561.7</ele>
        <time>2026-07-13T10:08:43.000Z</time>
      </trkpt>
      <trkpt lat="44.5648" lon="6.34779">
        <ele>1559.9</ele>
        <time>2026-07-13T10:08:54.000Z</time>
      </trkpt>
      <trkpt lat="44.56471" lon="6.34784">
        <ele>1558.3</ele>
        <time>2026-07-13T10:09:03.000Z</time>
      </trkpt>
      <trkpt lat="44.56462" lon="6.34784">
        <ele>1556.7</ele>
        <time>2026-07-13T10:09:12.000Z</time>
      </trkpt>
      <trkpt lat="44.56453" lon="6.34779">
        <ele>1554.9</ele>
        <time>2026-07-13T10:09:21.000Z</time>
      </trkpt>
      <trkpt lat="44.56446" lon="6.34771">
        <ele>1553.3</ele>
        <time>2026-07-13T10:09:30.000Z</time>
      </trkpt>
      <trkpt lat="44.56445" lon="6.34758">
        <ele>1551.4</ele>
        <time>2026-07-13T10:09:42.000Z</time>
      </trkpt>
      <trkpt lat="44.56445" lon="6.34746">
        <ele>1549</ele>
        <time>2026-07-13T10:09:55.000Z</time>
      </trkpt>
      <trkpt lat="44.56443" lon="6.34733">
        <ele>1545.7</ele>
        <time>2026-07-13T10:10:11.000Z</time>
      </trkpt>
      <trkpt lat="44.56441" lon="6.3472">
        <ele>1543</ele>
        <time>2026-07-13T10:10:24.000Z</time>
      </trkpt>
      <trkpt lat="44.56438" lon="6.3471">
        <ele>1540</ele>
        <time>2026-07-13T10:10:51.000Z</time>
      </trkpt>
      <trkpt lat="44.56436" lon="6.34703">
        <ele>1539.8</ele>
        <time>2026-07-13T10:11:10.000Z</time>
      </trkpt>
      <trkpt lat="44.56434" lon="6.3469">
        <ele>1540</ele>
        <time>2026-07-13T10:11:19.000Z</time>
      </trkpt>
      <trkpt lat="44.56432" lon="6.34676">
        <ele>1540.2</ele>
        <time>2026-07-13T10:11:28.000Z</time>
      </trkpt>
      <trkpt lat="44.56436" lon="6.34664">
        <ele>1540.3</ele>
        <time>2026-07-13T10:11:38.000Z</time>
      </trkpt>
      <trkpt lat="44.56431" lon="6.34653">
        <ele>1538.3</ele>
        <time>2026-07-13T10:12:12.000Z</time>
      </trkpt>
      <trkpt lat="44.56428" lon="6.34641">
        <ele>1534.5</ele>
        <time>2026-07-13T10:12:27.000Z</time>
      </trkpt>
      <trkpt lat="44.56422" lon="6.3465">
        <ele>1526.9</ele>
        <time>2026-07-13T10:13:17.000Z</time>
      </trkpt>
      <trkpt lat="44.56415" lon="6.3464">
        <ele>1523.6</ele>
        <time>2026-07-13T10:13:39.000Z</time>
      </trkpt>
      <trkpt lat="44.56416" lon="6.34627">
        <ele>1522.6</ele>
        <time>2026-07-13T10:13:47.000Z</time>
      </trkpt>
      <trkpt lat="44.56421" lon="6.34616">
        <ele>1521.9</ele>
        <time>2026-07-13T10:13:57.000Z</time>
      </trkpt>
      <trkpt lat="44.56423" lon="6.34603">
        <ele>1522.2</ele>
        <time>2026-07-13T10:14:08.000Z</time>
      </trkpt>
      <trkpt lat="44.5642" lon="6.3459">
        <ele>1522</ele>
        <time>2026-07-13T10:14:19.000Z</time>
      </trkpt>
      <trkpt lat="44.56413" lon="6.34582">
        <ele>1520.9</ele>
        <time>2026-07-13T10:14:32.000Z</time>
      </trkpt>
      <trkpt lat="44.56407" lon="6.34572">
        <ele>1519.6</ele>
        <time>2026-07-13T10:14:43.000Z</time>
      </trkpt>
      <trkpt lat="44.56401" lon="6.34561">
        <ele>1518.5</ele>
        <time>2026-07-13T10:14:52.000Z</time>
      </trkpt>
      <trkpt lat="44.56397" lon="6.34549">
        <ele>1516.8</ele>
        <time>2026-07-13T10:15:02.000Z</time>
      </trkpt>
      <trkpt lat="44.56395" lon="6.3454">
        <ele>1516</ele>
        <time>2026-07-13T10:15:30.000Z</time>
      </trkpt>
      <trkpt lat="44.56392" lon="6.34533">
        <ele>1515.9</ele>
        <time>2026-07-13T10:15:39.000Z</time>
      </trkpt>
      <trkpt lat="44.56384" lon="6.34527">
        <ele>1515.5</ele>
        <time>2026-07-13T10:15:46.000Z</time>
      </trkpt>
      <trkpt lat="44.56377" lon="6.34518">
        <ele>1514.2</ele>
        <time>2026-07-13T10:15:56.000Z</time>
      </trkpt>
      <trkpt lat="44.56375" lon="6.34505">
        <ele>1511.5</ele>
        <time>2026-07-13T10:16:06.000Z</time>
      </trkpt>
      <trkpt lat="44.56371" lon="6.34518">
        <ele>1507.6</ele>
        <time>2026-07-13T10:16:26.000Z</time>
      </trkpt>
      <trkpt lat="44.56371" lon="6.34531">
        <ele>1505.8</ele>
        <time>2026-07-13T10:16:35.000Z</time>
      </trkpt>
      <trkpt lat="44.56375" lon="6.34544">
        <ele>1503.9</ele>
        <time>2026-07-13T10:16:45.000Z</time>
      </trkpt>
      <trkpt lat="44.5638" lon="6.34554">
        <ele>1502.1</ele>
        <time>2026-07-13T10:16:53.000Z</time>
      </trkpt>
      <trkpt lat="44.56387" lon="6.34564">
        <ele>1500.2</ele>
        <time>2026-07-13T10:17:02.000Z</time>
      </trkpt>
      <trkpt lat="44.56385" lon="6.34576">
        <ele>1499.5</ele>
        <time>2026-07-13T10:17:07.000Z</time>
      </trkpt>
      <trkpt lat="44.56389" lon="6.34589">
        <ele>1498.5</ele>
        <time>2026-07-13T10:17:17.000Z</time>
      </trkpt>
      <trkpt lat="44.56383" lon="6.346">
        <ele>1497.9</ele>
        <time>2026-07-13T10:17:26.000Z</time>
      </trkpt>
      <trkpt lat="44.56375" lon="6.34609">
        <ele>1497</ele>
        <time>2026-07-13T10:17:33.000Z</time>
      </trkpt>
      <trkpt lat="44.56367" lon="6.34617">
        <ele>1495.5</ele>
        <time>2026-07-13T10:17:41.000Z</time>
      </trkpt>
      <trkpt lat="44.56364" lon="6.34631">
        <ele>1494.3</ele>
        <time>2026-07-13T10:17:49.000Z</time>
      </trkpt>
      <trkpt lat="44.56361" lon="6.34643">
        <ele>1493</ele>
        <time>2026-07-13T10:17:56.000Z</time>
      </trkpt>
      <trkpt lat="44.56357" lon="6.34655">
        <ele>1492.2</ele>
        <time>2026-07-13T10:18:04.000Z</time>
      </trkpt>
      <trkpt lat="44.56352" lon="6.34667">
        <ele>1491.8</ele>
        <time>2026-07-13T10:18:12.000Z</time>
      </trkpt>
      <trkpt lat="44.56349" lon="6.34679">
        <ele>1491.6</ele>
        <time>2026-07-13T10:18:20.000Z</time>
      </trkpt>
      <trkpt lat="44.56341" lon="6.34688">
        <ele>1491.4</ele>
        <time>2026-07-13T10:18:28.000Z</time>
      </trkpt>
      <trkpt lat="44.56331" lon="6.34689">
        <ele>1490.4</ele>
        <time>2026-07-13T10:18:38.000Z</time>
      </trkpt>
      <trkpt lat="44.56322" lon="6.34696">
        <ele>1487.7</ele>
        <time>2026-07-13T10:18:49.000Z</time>
      </trkpt>
      <trkpt lat="44.56316" lon="6.34705">
        <ele>1485.5</ele>
        <time>2026-07-13T10:19:00.000Z</time>
      </trkpt>
      <trkpt lat="44.56309" lon="6.34714">
        <ele>1484.7</ele>
        <time>2026-07-13T10:19:07.000Z</time>
      </trkpt>
      <trkpt lat="44.56301" lon="6.34722">
        <ele>1483.5</ele>
        <time>2026-07-13T10:19:15.000Z</time>
      </trkpt>
      <trkpt lat="44.56295" lon="6.34731">
        <ele>1481.9</ele>
        <time>2026-07-13T10:19:24.000Z</time>
      </trkpt>
      <trkpt lat="44.56285" lon="6.34736">
        <ele>1480.1</ele>
        <time>2026-07-13T10:19:34.000Z</time>
      </trkpt>
      <trkpt lat="44.56278" lon="6.34744">
        <ele>1478.3</ele>
        <time>2026-07-13T10:19:44.000Z</time>
      </trkpt>
      <trkpt lat="44.56271" lon="6.34753">
        <ele>1476.7</ele>
        <time>2026-07-13T10:19:53.000Z</time>
      </trkpt>
      <trkpt lat="44.5627" lon="6.34739">
        <ele>1474.4</ele>
        <time>2026-07-13T10:20:04.000Z</time>
      </trkpt>
      <trkpt lat="44.56272" lon="6.34725">
        <ele>1473.2</ele>
        <time>2026-07-13T10:20:11.000Z</time>
      </trkpt>
      <trkpt lat="44.56276" lon="6.34712">
        <ele>1472.9</ele>
        <time>2026-07-13T10:20:20.000Z</time>
      </trkpt>
      <trkpt lat="44.5628" lon="6.34698">
        <ele>1472.5</ele>
        <time>2026-07-13T10:20:28.000Z</time>
      </trkpt>
      <trkpt lat="44.56285" lon="6.34686">
        <ele>1472.2</ele>
        <time>2026-07-13T10:20:36.000Z</time>
      </trkpt>
      <trkpt lat="44.56289" lon="6.34674">
        <ele>1471.7</ele>
        <time>2026-07-13T10:20:44.000Z</time>
      </trkpt>
      <trkpt lat="44.56293" lon="6.34662">
        <ele>1471.5</ele>
        <time>2026-07-13T10:20:51.000Z</time>
      </trkpt>
      <trkpt lat="44.56296" lon="6.34649">
        <ele>1471.4</ele>
        <time>2026-07-13T10:20:59.000Z</time>
      </trkpt>
      <trkpt lat="44.56299" lon="6.34637">
        <ele>1471.5</ele>
        <time>2026-07-13T10:21:07.000Z</time>
      </trkpt>
      <trkpt lat="44.563" lon="6.34623">
        <ele>1471.6</ele>
        <time>2026-07-13T10:21:15.000Z</time>
      </trkpt>
      <trkpt lat="44.56296" lon="6.34616">
        <ele>1471.6</ele>
        <time>2026-07-13T10:21:41.000Z</time>
      </trkpt>
      <trkpt lat="44.56296" lon="6.34616">
        <ele>1471.6</ele>
        <time>2026-07-13T10:21:42.000Z</time>
      </trkpt>
      <trkpt lat="44.56297" lon="6.34616">
        <ele>1471.4</ele>
        <time>2026-07-13T10:22:07.100Z</time>
      </trkpt>
      <trkpt lat="44.563" lon="6.34612">
        <ele>1470.8</ele>
        <time>2026-07-13T10:50:58.000Z</time>
      </trkpt>
      <trkpt lat="44.56299" lon="6.34614">
        <ele>1471</ele>
        <time>2026-07-13T10:52:00.000Z</time>
      </trkpt>
      <trkpt lat="44.56299" lon="6.34614">
        <ele>1471</ele>
        <time>2026-07-13T10:52:02.000Z</time>
      </trkpt>
      <trkpt lat="44.56302" lon="6.34615">
        <ele>1471.1</ele>
        <time>2026-07-13T10:52:20.000Z</time>
      </trkpt>
      <trkpt lat="44.563" lon="6.34616">
        <ele>1471.1</ele>
        <time>2026-07-13T10:52:32.000Z</time>
      </trkpt>
      <trkpt lat="44.56305" lon="6.34603">
        <ele>1471.1</ele>
        <time>2026-07-13T10:52:49.000Z</time>
      </trkpt>
      <trkpt lat="44.56312" lon="6.34593">
        <ele>1471.1</ele>
        <time>2026-07-13T10:52:56.000Z</time>
      </trkpt>
      <trkpt lat="44.56315" lon="6.34581">
        <ele>1471.2</ele>
        <time>2026-07-13T10:53:05.000Z</time>
      </trkpt>
      <trkpt lat="44.56315" lon="6.34568">
        <ele>1471.2</ele>
        <time>2026-07-13T10:53:15.000Z</time>
      </trkpt>
      <trkpt lat="44.56312" lon="6.34555">
        <ele>1471.2</ele>
        <time>2026-07-13T10:53:22.000Z</time>
      </trkpt>
      <trkpt lat="44.56306" lon="6.34544">
        <ele>1471.2</ele>
        <time>2026-07-13T10:53:35.000Z</time>
      </trkpt>
      <trkpt lat="44.56298" lon="6.34537">
        <ele>1471.2</ele>
        <time>2026-07-13T10:53:44.000Z</time>
      </trkpt>
      <trkpt lat="44.56289" lon="6.34537">
        <ele>1471.3</ele>
        <time>2026-07-13T10:53:53.000Z</time>
      </trkpt>
      <trkpt lat="44.56282" lon="6.34546">
        <ele>1471.5</ele>
        <time>2026-07-13T10:54:05.000Z</time>
      </trkpt>
      <trkpt lat="44.56273" lon="6.34551">
        <ele>1471.9</ele>
        <time>2026-07-13T10:54:18.000Z</time>
      </trkpt>
      <trkpt lat="44.56264" lon="6.34555">
        <ele>1472.2</ele>
        <time>2026-07-13T10:54:27.000Z</time>
      </trkpt>
      <trkpt lat="44.56254" lon="6.34554">
        <ele>1472.3</ele>
        <time>2026-07-13T10:54:35.000Z</time>
      </trkpt>
      <trkpt lat="44.56245" lon="6.34559">
        <ele>1472.5</ele>
        <time>2026-07-13T10:54:45.000Z</time>
      </trkpt>
      <trkpt lat="44.56241" lon="6.3457">
        <ele>1472.6</ele>
        <time>2026-07-13T10:54:54.000Z</time>
      </trkpt>
      <trkpt lat="44.56236" lon="6.34582">
        <ele>1472.5</ele>
        <time>2026-07-13T10:55:03.000Z</time>
      </trkpt>
      <trkpt lat="44.56231" lon="6.34593">
        <ele>1472.3</ele>
        <time>2026-07-13T10:55:11.000Z</time>
      </trkpt>
      <trkpt lat="44.56227" lon="6.34605">
        <ele>1472.2</ele>
        <time>2026-07-13T10:55:20.000Z</time>
      </trkpt>
      <trkpt lat="44.56231" lon="6.34617">
        <ele>1472.1</ele>
        <time>2026-07-13T10:55:28.000Z</time>
      </trkpt>
      <trkpt lat="44.56234" lon="6.34629">
        <ele>1472.1</ele>
        <time>2026-07-13T10:55:36.000Z</time>
      </trkpt>
      <trkpt lat="44.56239" lon="6.34641">
        <ele>1472</ele>
        <time>2026-07-13T10:55:45.000Z</time>
      </trkpt>
      <trkpt lat="44.56244" lon="6.34651">
        <ele>1471.9</ele>
        <time>2026-07-13T10:55:55.000Z</time>
      </trkpt>
      <trkpt lat="44.56252" lon="6.34658">
        <ele>1471.8</ele>
        <time>2026-07-13T10:56:04.000Z</time>
      </trkpt>
      <trkpt lat="44.56261" lon="6.34662">
        <ele>1471.8</ele>
        <time>2026-07-13T10:56:12.000Z</time>
      </trkpt>
      <trkpt lat="44.56268" lon="6.3467">
        <ele>1471.8</ele>
        <time>2026-07-13T10:56:20.000Z</time>
      </trkpt>
      <trkpt lat="44.56272" lon="6.34683">
        <ele>1471.8</ele>
        <time>2026-07-13T10:56:29.000Z</time>
      </trkpt>
      <trkpt lat="44.56273" lon="6.34697">
        <ele>1471.8</ele>
        <time>2026-07-13T10:56:37.000Z</time>
      </trkpt>
      <trkpt lat="44.56272" lon="6.3471">
        <ele>1472.1</ele>
        <time>2026-07-13T10:56:47.000Z</time>
      </trkpt>
      <trkpt lat="44.56267" lon="6.34723">
        <ele>1472.5</ele>
        <time>2026-07-13T10:56:57.000Z</time>
      </trkpt>
      <trkpt lat="44.56266" lon="6.34736">
        <ele>1472.9</ele>
        <time>2026-07-13T10:57:08.000Z</time>
      </trkpt>
      <trkpt lat="44.56265" lon="6.3475">
        <ele>1473.8</ele>
        <time>2026-07-13T10:57:19.000Z</time>
      </trkpt>
      <trkpt lat="44.56261" lon="6.34761">
        <ele>1473.9</ele>
        <time>2026-07-13T10:57:27.000Z</time>
      </trkpt>
      <trkpt lat="44.56262" lon="6.34775">
        <ele>1473.4</ele>
        <time>2026-07-13T10:57:39.000Z</time>
      </trkpt>
      <trkpt lat="44.56263" lon="6.34788">
        <ele>1473.3</ele>
        <time>2026-07-13T10:57:51.000Z</time>
      </trkpt>
      <trkpt lat="44.56268" lon="6.34799">
        <ele>1473.2</ele>
        <time>2026-07-13T10:58:01.000Z</time>
      </trkpt>
      <trkpt lat="44.56276" lon="6.34806">
        <ele>1473.3</ele>
        <time>2026-07-13T10:58:10.000Z</time>
      </trkpt>
      <trkpt lat="44.56284" lon="6.34811">
        <ele>1473.9</ele>
        <time>2026-07-13T10:58:19.000Z</time>
      </trkpt>
      <trkpt lat="44.56293" lon="6.34815">
        <ele>1476.1</ele>
        <time>2026-07-13T10:58:32.000Z</time>
      </trkpt>
      <trkpt lat="44.56297" lon="6.34827">
        <ele>1476.4</ele>
        <time>2026-07-13T10:58:40.000Z</time>
      </trkpt>
      <trkpt lat="44.56299" lon="6.3484">
        <ele>1476.3</ele>
        <time>2026-07-13T10:58:49.000Z</time>
      </trkpt>
      <trkpt lat="44.56293" lon="6.3485">
        <ele>1474.3</ele>
        <time>2026-07-13T10:59:05.000Z</time>
      </trkpt>
      <trkpt lat="44.56285" lon="6.34859">
        <ele>1471.4</ele>
        <time>2026-07-13T10:59:18.000Z</time>
      </trkpt>
      <trkpt lat="44.5628" lon="6.3487">
        <ele>1468.8</ele>
        <time>2026-07-13T10:59:30.000Z</time>
      </trkpt>
      <trkpt lat="44.5628" lon="6.34883">
        <ele>1465.2</ele>
        <time>2026-07-13T10:59:58.000Z</time>
      </trkpt>
      <trkpt lat="44.56282" lon="6.34887">
        <ele>1465</ele>
        <time>2026-07-13T11:00:15.000Z</time>
      </trkpt>
      <trkpt lat="44.56282" lon="6.34889">
        <ele>1465</ele>
        <time>2026-07-13T11:00:20.000Z</time>
      </trkpt>
      <trkpt lat="44.56276" lon="6.34898">
        <ele>1465</ele>
        <time>2026-07-13T11:00:47.000Z</time>
      </trkpt>
      <trkpt lat="44.56272" lon="6.34909">
        <ele>1464.1</ele>
        <time>2026-07-13T11:00:58.000Z</time>
      </trkpt>
      <trkpt lat="44.56264" lon="6.34917">
        <ele>1460.7</ele>
        <time>2026-07-13T11:01:32.000Z</time>
      </trkpt>
      <trkpt lat="44.56257" lon="6.34927">
        <ele>1460.1</ele>
        <time>2026-07-13T11:01:46.000Z</time>
      </trkpt>
      <trkpt lat="44.56247" lon="6.34927">
        <ele>1453.7</ele>
        <time>2026-07-13T11:02:14.000Z</time>
      </trkpt>
      <trkpt lat="44.56238" lon="6.34933">
        <ele>1451.8</ele>
        <time>2026-07-13T11:02:24.000Z</time>
      </trkpt>
      <trkpt lat="44.56231" lon="6.34941">
        <ele>1450.3</ele>
        <time>2026-07-13T11:02:36.000Z</time>
      </trkpt>
      <trkpt lat="44.56223" lon="6.34948">
        <ele>1447.8</ele>
        <time>2026-07-13T11:02:47.000Z</time>
      </trkpt>
      <trkpt lat="44.56215" lon="6.34954">
        <ele>1444.8</ele>
        <time>2026-07-13T11:02:58.000Z</time>
      </trkpt>
      <trkpt lat="44.56206" lon="6.3496">
        <ele>1442.5</ele>
        <time>2026-07-13T11:03:07.000Z</time>
      </trkpt>
      <trkpt lat="44.56198" lon="6.34966">
        <ele>1440.3</ele>
        <time>2026-07-13T11:03:17.000Z</time>
      </trkpt>
      <trkpt lat="44.56191" lon="6.34975">
        <ele>1438.3</ele>
        <time>2026-07-13T11:03:26.000Z</time>
      </trkpt>
      <trkpt lat="44.56183" lon="6.34982">
        <ele>1435.8</ele>
        <time>2026-07-13T11:03:37.000Z</time>
      </trkpt>
      <trkpt lat="44.56181" lon="6.34996">
        <ele>1430.7</ele>
        <time>2026-07-13T11:04:05.000Z</time>
      </trkpt>
      <trkpt lat="44.56175" lon="6.35006">
        <ele>1428.5</ele>
        <time>2026-07-13T11:04:17.000Z</time>
      </trkpt>
      <trkpt lat="44.56169" lon="6.35016">
        <ele>1426.7</ele>
        <time>2026-07-13T11:04:27.000Z</time>
      </trkpt>
      <trkpt lat="44.5616" lon="6.35024">
        <ele>1425.8</ele>
        <time>2026-07-13T11:04:37.000Z</time>
      </trkpt>
      <trkpt lat="44.56152" lon="6.35029">
        <ele>1425.5</ele>
        <time>2026-07-13T11:04:47.000Z</time>
      </trkpt>
      <trkpt lat="44.56154" lon="6.35042">
        <ele>1425.3</ele>
        <time>2026-07-13T11:04:59.000Z</time>
      </trkpt>
      <trkpt lat="44.56151" lon="6.35056">
        <ele>1425.1</ele>
        <time>2026-07-13T11:05:09.000Z</time>
      </trkpt>
      <trkpt lat="44.56144" lon="6.35065">
        <ele>1425</ele>
        <time>2026-07-13T11:05:18.000Z</time>
      </trkpt>
      <trkpt lat="44.56135" lon="6.35072">
        <ele>1424.9</ele>
        <time>2026-07-13T11:05:25.000Z</time>
      </trkpt>
      <trkpt lat="44.56127" lon="6.35078">
        <ele>1424.6</ele>
        <time>2026-07-13T11:05:32.000Z</time>
      </trkpt>
      <trkpt lat="44.56118" lon="6.35086">
        <ele>1424.1</ele>
        <time>2026-07-13T11:05:40.000Z</time>
      </trkpt>
      <trkpt lat="44.56109" lon="6.35093">
        <ele>1423.3</ele>
        <time>2026-07-13T11:05:49.000Z</time>
      </trkpt>
      <trkpt lat="44.561" lon="6.35097">
        <ele>1422.5</ele>
        <time>2026-07-13T11:05:57.000Z</time>
      </trkpt>
      <trkpt lat="44.56091" lon="6.35102">
        <ele>1421.7</ele>
        <time>2026-07-13T11:06:04.000Z</time>
      </trkpt>
      <trkpt lat="44.56083" lon="6.35109">
        <ele>1420.9</ele>
        <time>2026-07-13T11:06:11.000Z</time>
      </trkpt>
      <trkpt lat="44.56076" lon="6.35116">
        <ele>1420.2</ele>
        <time>2026-07-13T11:06:18.000Z</time>
      </trkpt>
      <trkpt lat="44.56068" lon="6.35124">
        <ele>1419.6</ele>
        <time>2026-07-13T11:06:27.000Z</time>
      </trkpt>
      <trkpt lat="44.56058" lon="6.35129">
        <ele>1419.1</ele>
        <time>2026-07-13T11:06:35.000Z</time>
      </trkpt>
      <trkpt lat="44.5605" lon="6.35135">
        <ele>1418.4</ele>
        <time>2026-07-13T11:06:47.000Z</time>
      </trkpt>
      <trkpt lat="44.56042" lon="6.35141">
        <ele>1418.1</ele>
        <time>2026-07-13T11:06:57.000Z</time>
      </trkpt>
      <trkpt lat="44.56032" lon="6.35141">
        <ele>1417.9</ele>
        <time>2026-07-13T11:07:03.000Z</time>
      </trkpt>
      <trkpt lat="44.56024" lon="6.35149">
        <ele>1417.5</ele>
        <time>2026-07-13T11:07:12.000Z</time>
      </trkpt>
      <trkpt lat="44.56019" lon="6.3516">
        <ele>1417.1</ele>
        <time>2026-07-13T11:07:20.000Z</time>
      </trkpt>
      <trkpt lat="44.56014" lon="6.35172">
        <ele>1416.5</ele>
        <time>2026-07-13T11:07:28.000Z</time>
      </trkpt>
      <trkpt lat="44.56008" lon="6.35182">
        <ele>1415.9</ele>
        <time>2026-07-13T11:07:35.000Z</time>
      </trkpt>
      <trkpt lat="44.56006" lon="6.35195">
        <ele>1415.1</ele>
        <time>2026-07-13T11:07:43.000Z</time>
      </trkpt>
      <trkpt lat="44.56005" lon="6.35208">
        <ele>1414.4</ele>
        <time>2026-07-13T11:07:50.000Z</time>
      </trkpt>
      <trkpt lat="44.56005" lon="6.35222">
        <ele>1413.6</ele>
        <time>2026-07-13T11:07:59.000Z</time>
      </trkpt>
      <trkpt lat="44.56004" lon="6.35236">
        <ele>1412.8</ele>
        <time>2026-07-13T11:08:07.000Z</time>
      </trkpt>
      <trkpt lat="44.56004" lon="6.3525">
        <ele>1411.9</ele>
        <time>2026-07-13T11:08:16.000Z</time>
      </trkpt>
      <trkpt lat="44.56001" lon="6.35263">
        <ele>1411</ele>
        <time>2026-07-13T11:08:25.000Z</time>
      </trkpt>
      <trkpt lat="44.56005" lon="6.35275">
        <ele>1410.4</ele>
        <time>2026-07-13T11:08:34.000Z</time>
      </trkpt>
      <trkpt lat="44.5601" lon="6.35286">
        <ele>1410.4</ele>
        <time>2026-07-13T11:08:42.000Z</time>
      </trkpt>
      <trkpt lat="44.56013" lon="6.35298">
        <ele>1410.8</ele>
        <time>2026-07-13T11:08:52.000Z</time>
      </trkpt>
      <trkpt lat="44.56014" lon="6.35311">
        <ele>1411.8</ele>
        <time>2026-07-13T11:09:02.000Z</time>
      </trkpt>
      <trkpt lat="44.56014" lon="6.35323">
        <ele>1413.2</ele>
        <time>2026-07-13T11:09:13.000Z</time>
      </trkpt>
      <trkpt lat="44.56016" lon="6.35337">
        <ele>1414.7</ele>
        <time>2026-07-13T11:09:25.000Z</time>
      </trkpt>
      <trkpt lat="44.5602" lon="6.35348">
        <ele>1416.3</ele>
        <time>2026-07-13T11:09:39.000Z</time>
      </trkpt>
      <trkpt lat="44.56029" lon="6.35348">
        <ele>1418</ele>
        <time>2026-07-13T11:09:56.000Z</time>
      </trkpt>
      <trkpt lat="44.56033" lon="6.35336">
        <ele>1419.5</ele>
        <time>2026-07-13T11:10:13.000Z</time>
      </trkpt>
      <trkpt lat="44.56035" lon="6.35323">
        <ele>1421.6</ele>
        <time>2026-07-13T11:10:28.000Z</time>
      </trkpt>
      <trkpt lat="44.56045" lon="6.35323">
        <ele>1423.8</ele>
        <time>2026-07-13T11:10:46.000Z</time>
      </trkpt>
      <trkpt lat="44.5605" lon="6.35334">
        <ele>1424.6</ele>
        <time>2026-07-13T11:10:56.000Z</time>
      </trkpt>
      <trkpt lat="44.56054" lon="6.35346">
        <ele>1425</ele>
        <time>2026-07-13T11:11:05.000Z</time>
      </trkpt>
      <trkpt lat="44.56056" lon="6.35358">
        <ele>1425.5</ele>
        <time>2026-07-13T11:11:15.000Z</time>
      </trkpt>
      <trkpt lat="44.56055" lon="6.35371">
        <ele>1426.9</ele>
        <time>2026-07-13T11:11:26.000Z</time>
      </trkpt>
      <trkpt lat="44.56054" lon="6.35385">
        <ele>1428.4</ele>
        <time>2026-07-13T11:11:37.000Z</time>
      </trkpt>
      <trkpt lat="44.56053" lon="6.35398">
        <ele>1429.2</ele>
        <time>2026-07-13T11:11:46.000Z</time>
      </trkpt>
      <trkpt lat="44.56053" lon="6.35412">
        <ele>1429.4</ele>
        <time>2026-07-13T11:11:56.000Z</time>
      </trkpt>
      <trkpt lat="44.56052" lon="6.35425">
        <ele>1429.5</ele>
        <time>2026-07-13T11:12:04.000Z</time>
      </trkpt>
      <trkpt lat="44.5605" lon="6.35438">
        <ele>1429.5</ele>
        <time>2026-07-13T11:12:12.000Z</time>
      </trkpt>
      <trkpt lat="44.56047" lon="6.35452">
        <ele>1429.2</ele>
        <time>2026-07-13T11:12:20.000Z</time>
      </trkpt>
      <trkpt lat="44.56046" lon="6.35465">
        <ele>1428.8</ele>
        <time>2026-07-13T11:12:29.000Z</time>
      </trkpt>
      <trkpt lat="44.56046" lon="6.35478">
        <ele>1428.4</ele>
        <time>2026-07-13T11:12:37.000Z</time>
      </trkpt>
      <trkpt lat="44.56047" lon="6.35492">
        <ele>1428</ele>
        <time>2026-07-13T11:12:46.000Z</time>
      </trkpt>
      <trkpt lat="44.56048" lon="6.35503">
        <ele>1427.7</ele>
        <time>2026-07-13T11:13:05.000Z</time>
      </trkpt>
      <trkpt lat="44.56048" lon="6.35514">
        <ele>1427.6</ele>
        <time>2026-07-13T11:13:30.000Z</time>
      </trkpt>
      <trkpt lat="44.56046" lon="6.35528">
        <ele>1427.5</ele>
        <time>2026-07-13T11:13:38.000Z</time>
      </trkpt>
      <trkpt lat="44.56046" lon="6.35542">
        <ele>1427.2</ele>
        <time>2026-07-13T11:13:46.000Z</time>
      </trkpt>
      <trkpt lat="44.56045" lon="6.35555">
        <ele>1426.8</ele>
        <time>2026-07-13T11:13:53.000Z</time>
      </trkpt>
      <trkpt lat="44.56045" lon="6.35568">
        <ele>1426</ele>
        <time>2026-07-13T11:14:02.000Z</time>
      </trkpt>
      <trkpt lat="44.56046" lon="6.35581">
        <ele>1425.4</ele>
        <time>2026-07-13T11:14:09.000Z</time>
      </trkpt>
      <trkpt lat="44.56047" lon="6.35596">
        <ele>1425.1</ele>
        <time>2026-07-13T11:14:16.000Z</time>
      </trkpt>
      <trkpt lat="44.56048" lon="6.3561">
        <ele>1424.8</ele>
        <time>2026-07-13T11:14:24.000Z</time>
      </trkpt>
      <trkpt lat="44.56047" lon="6.35622">
        <ele>1424.6</ele>
        <time>2026-07-13T11:14:31.000Z</time>
      </trkpt>
      <trkpt lat="44.56047" lon="6.35635">
        <ele>1424.6</ele>
        <time>2026-07-13T11:14:39.000Z</time>
      </trkpt>
      <trkpt lat="44.56046" lon="6.35648">
        <ele>1424.6</ele>
        <time>2026-07-13T11:14:46.000Z</time>
      </trkpt>
      <trkpt lat="44.56043" lon="6.35663">
        <ele>1424.6</ele>
        <time>2026-07-13T11:14:53.000Z</time>
      </trkpt>
      <trkpt lat="44.56038" lon="6.35675">
        <ele>1424.8</ele>
        <time>2026-07-13T11:15:01.000Z</time>
      </trkpt>
      <trkpt lat="44.56035" lon="6.35688">
        <ele>1424.9</ele>
        <time>2026-07-13T11:15:09.000Z</time>
      </trkpt>
      <trkpt lat="44.56032" lon="6.35701">
        <ele>1424.9</ele>
        <time>2026-07-13T11:15:17.000Z</time>
      </trkpt>
      <trkpt lat="44.5603" lon="6.35715">
        <ele>1424.9</ele>
        <time>2026-07-13T11:15:25.000Z</time>
      </trkpt>
      <trkpt lat="44.56033" lon="6.35728">
        <ele>1424.9</ele>
        <time>2026-07-13T11:15:34.000Z</time>
      </trkpt>
      <trkpt lat="44.56039" lon="6.35738">
        <ele>1424.9</ele>
        <time>2026-07-13T11:15:41.000Z</time>
      </trkpt>
      <trkpt lat="44.56048" lon="6.35743">
        <ele>1424.9</ele>
        <time>2026-07-13T11:15:48.000Z</time>
      </trkpt>
      <trkpt lat="44.56054" lon="6.35752">
        <ele>1424.8</ele>
        <time>2026-07-13T11:15:58.000Z</time>
      </trkpt>
      <trkpt lat="44.56058" lon="6.35764">
        <ele>1424.6</ele>
        <time>2026-07-13T11:16:09.000Z</time>
      </trkpt>
      <trkpt lat="44.5606" lon="6.35777">
        <ele>1424.3</ele>
        <time>2026-07-13T11:16:18.000Z</time>
      </trkpt>
      <trkpt lat="44.56062" lon="6.3579">
        <ele>1423.8</ele>
        <time>2026-07-13T11:16:25.000Z</time>
      </trkpt>
      <trkpt lat="44.56062" lon="6.35803">
        <ele>1423.3</ele>
        <time>2026-07-13T11:16:31.000Z</time>
      </trkpt>
      <trkpt lat="44.56065" lon="6.35817">
        <ele>1422.8</ele>
        <time>2026-07-13T11:16:38.000Z</time>
      </trkpt>
      <trkpt lat="44.56065" lon="6.3583">
        <ele>1422.4</ele>
        <time>2026-07-13T11:16:45.000Z</time>
      </trkpt>
      <trkpt lat="44.56064" lon="6.35843">
        <ele>1422.3</ele>
        <time>2026-07-13T11:16:52.000Z</time>
      </trkpt>
      <trkpt lat="44.56063" lon="6.35857">
        <ele>1422.1</ele>
        <time>2026-07-13T11:16:59.000Z</time>
      </trkpt>
      <trkpt lat="44.56063" lon="6.35871">
        <ele>1421.9</ele>
        <time>2026-07-13T11:17:06.000Z</time>
      </trkpt>
      <trkpt lat="44.56065" lon="6.35884">
        <ele>1421.7</ele>
        <time>2026-07-13T11:17:13.000Z</time>
      </trkpt>
      <trkpt lat="44.56071" lon="6.35895">
        <ele>1421.5</ele>
        <time>2026-07-13T11:17:21.000Z</time>
      </trkpt>
      <trkpt lat="44.56077" lon="6.35904">
        <ele>1421.5</ele>
        <time>2026-07-13T11:17:29.000Z</time>
      </trkpt>
      <trkpt lat="44.56085" lon="6.35911">
        <ele>1421.9</ele>
        <time>2026-07-13T11:17:40.000Z</time>
      </trkpt>
      <trkpt lat="44.56094" lon="6.35916">
        <ele>1423.2</ele>
        <time>2026-07-13T11:17:51.000Z</time>
      </trkpt>
      <trkpt lat="44.56102" lon="6.35921">
        <ele>1425.2</ele>
        <time>2026-07-13T11:18:03.000Z</time>
      </trkpt>
      <trkpt lat="44.56112" lon="6.35925">
        <ele>1427.3</ele>
        <time>2026-07-13T11:18:19.000Z</time>
      </trkpt>
      <trkpt lat="44.56121" lon="6.35927">
        <ele>1429.6</ele>
        <time>2026-07-13T11:18:35.000Z</time>
      </trkpt>
      <trkpt lat="44.56129" lon="6.35936">
        <ele>1431.1</ele>
        <time>2026-07-13T11:18:48.000Z</time>
      </trkpt>
      <trkpt lat="44.56127" lon="6.35948">
        <ele>1433.1</ele>
        <time>2026-07-13T11:19:06.000Z</time>
      </trkpt>
      <trkpt lat="44.5613" lon="6.3596">
        <ele>1434.2</ele>
        <time>2026-07-13T11:19:18.000Z</time>
      </trkpt>
      <trkpt lat="44.56133" lon="6.35972">
        <ele>1434.7</ele>
        <time>2026-07-13T11:19:28.000Z</time>
      </trkpt>
      <trkpt lat="44.56138" lon="6.35984">
        <ele>1434.8</ele>
        <time>2026-07-13T11:19:36.000Z</time>
      </trkpt>
      <trkpt lat="44.56137" lon="6.35997">
        <ele>1435.2</ele>
        <time>2026-07-13T11:19:53.000Z</time>
      </trkpt>
      <trkpt lat="44.5614" lon="6.3601">
        <ele>1436.2</ele>
        <time>2026-07-13T11:20:06.000Z</time>
      </trkpt>
      <trkpt lat="44.56137" lon="6.36022">
        <ele>1438.2</ele>
        <time>2026-07-13T11:20:21.000Z</time>
      </trkpt>
      <trkpt lat="44.56138" lon="6.36035">
        <ele>1439.3</ele>
        <time>2026-07-13T11:20:28.000Z</time>
      </trkpt>
      <trkpt lat="44.5614" lon="6.36048">
        <ele>1441.6</ele>
        <time>2026-07-13T11:20:43.000Z</time>
      </trkpt>
      <trkpt lat="44.56143" lon="6.36061">
        <ele>1443.8</ele>
        <time>2026-07-13T11:20:58.000Z</time>
      </trkpt>
      <trkpt lat="44.56148" lon="6.36071">
        <ele>1446.6</ele>
        <time>2026-07-13T11:21:19.000Z</time>
      </trkpt>
      <trkpt lat="44.56148" lon="6.36084">
        <ele>1447.8</ele>
        <time>2026-07-13T11:21:31.000Z</time>
      </trkpt>
      <trkpt lat="44.5615" lon="6.36097">
        <ele>1448.3</ele>
        <time>2026-07-13T11:21:40.000Z</time>
      </trkpt>
      <trkpt lat="44.56148" lon="6.3611">
        <ele>1448.5</ele>
        <time>2026-07-13T11:21:50.000Z</time>
      </trkpt>
      <trkpt lat="44.5615" lon="6.36123">
        <ele>1448.1</ele>
        <time>2026-07-13T11:22:00.000Z</time>
      </trkpt>
      <trkpt lat="44.56152" lon="6.36136">
        <ele>1447.5</ele>
        <time>2026-07-13T11:22:09.000Z</time>
      </trkpt>
      <trkpt lat="44.56152" lon="6.36148">
        <ele>1446.7</ele>
        <time>2026-07-13T11:22:17.000Z</time>
      </trkpt>
      <trkpt lat="44.56149" lon="6.36162">
        <ele>1445.6</ele>
        <time>2026-07-13T11:22:26.000Z</time>
      </trkpt>
      <trkpt lat="44.56143" lon="6.36172">
        <ele>1444.3</ele>
        <time>2026-07-13T11:22:35.000Z</time>
      </trkpt>
      <trkpt lat="44.56138" lon="6.36183">
        <ele>1441.5</ele>
        <time>2026-07-13T11:22:49.000Z</time>
      </trkpt>
      <trkpt lat="44.56134" lon="6.36194">
        <ele>1438.7</ele>
        <time>2026-07-13T11:23:02.000Z</time>
      </trkpt>
      <trkpt lat="44.56129" lon="6.36205">
        <ele>1437</ele>
        <time>2026-07-13T11:23:12.000Z</time>
      </trkpt>
      <trkpt lat="44.56124" lon="6.36216">
        <ele>1436.1</ele>
        <time>2026-07-13T11:23:20.000Z</time>
      </trkpt>
      <trkpt lat="44.56124" lon="6.3623">
        <ele>1435.7</ele>
        <time>2026-07-13T11:23:29.000Z</time>
      </trkpt>
      <trkpt lat="44.56122" lon="6.36243">
        <ele>1435.3</ele>
        <time>2026-07-13T11:23:37.000Z</time>
      </trkpt>
      <trkpt lat="44.56119" lon="6.36252">
        <ele>1434.4</ele>
        <time>2026-07-13T11:24:06.000Z</time>
      </trkpt>
      <trkpt lat="44.56118" lon="6.36255">
        <ele>1434.1</ele>
        <time>2026-07-13T11:24:34.000Z</time>
      </trkpt>
      <trkpt lat="44.5612" lon="6.36268">
        <ele>1433.7</ele>
        <time>2026-07-13T11:25:04.000Z</time>
      </trkpt>
      <trkpt lat="44.5612" lon="6.36281">
        <ele>1431.4</ele>
        <time>2026-07-13T11:25:18.000Z</time>
      </trkpt>
      <trkpt lat="44.56114" lon="6.36291">
        <ele>1428.5</ele>
        <time>2026-07-13T11:25:31.000Z</time>
      </trkpt>
      <trkpt lat="44.5611" lon="6.36304">
        <ele>1426.1</ele>
        <time>2026-07-13T11:25:42.000Z</time>
      </trkpt>
      <trkpt lat="44.56112" lon="6.36317">
        <ele>1424.8</ele>
        <time>2026-07-13T11:25:53.000Z</time>
      </trkpt>
      <trkpt lat="44.56115" lon="6.36329">
        <ele>1424.9</ele>
        <time>2026-07-13T11:26:01.000Z</time>
      </trkpt>
      <trkpt lat="44.56119" lon="6.36342">
        <ele>1425</ele>
        <time>2026-07-13T11:26:09.000Z</time>
      </trkpt>
      <trkpt lat="44.56124" lon="6.36355">
        <ele>1424.9</ele>
        <time>2026-07-13T11:26:17.000Z</time>
      </trkpt>
      <trkpt lat="44.5613" lon="6.36365">
        <ele>1424.6</ele>
        <time>2026-07-13T11:26:25.000Z</time>
      </trkpt>
      <trkpt lat="44.56136" lon="6.36374">
        <ele>1424.4</ele>
        <time>2026-07-13T11:26:33.000Z</time>
      </trkpt>
      <trkpt lat="44.56143" lon="6.36385">
        <ele>1424.3</ele>
        <time>2026-07-13T11:26:43.000Z</time>
      </trkpt>
      <trkpt lat="44.56148" lon="6.36397">
        <ele>1424.2</ele>
        <time>2026-07-13T11:26:52.000Z</time>
      </trkpt>
      <trkpt lat="44.56154" lon="6.36407">
        <ele>1423.7</ele>
        <time>2026-07-13T11:27:01.000Z</time>
      </trkpt>
      <trkpt lat="44.56157" lon="6.36419">
        <ele>1422</ele>
        <time>2026-07-13T11:27:12.000Z</time>
      </trkpt>
      <trkpt lat="44.5616" lon="6.36432">
        <ele>1420</ele>
        <time>2026-07-13T11:27:24.000Z</time>
      </trkpt>
      <trkpt lat="44.56162" lon="6.36445">
        <ele>1417.1</ele>
        <time>2026-07-13T11:27:40.000Z</time>
      </trkpt>
      <trkpt lat="44.56165" lon="6.36457">
        <ele>1414.1</ele>
        <time>2026-07-13T11:27:52.000Z</time>
      </trkpt>
      <trkpt lat="44.56169" lon="6.36468">
        <ele>1411.5</ele>
        <time>2026-07-13T11:28:02.000Z</time>
      </trkpt>
      <trkpt lat="44.56172" lon="6.36481">
        <ele>1410.3</ele>
        <time>2026-07-13T11:28:09.000Z</time>
      </trkpt>
      <trkpt lat="44.56178" lon="6.3649">
        <ele>1409.3</ele>
        <time>2026-07-13T11:28:18.000Z</time>
      </trkpt>
      <trkpt lat="44.56186" lon="6.36497">
        <ele>1409.1</ele>
        <time>2026-07-13T11:28:27.000Z</time>
      </trkpt>
      <trkpt lat="44.56195" lon="6.36505">
        <ele>1409.3</ele>
        <time>2026-07-13T11:28:36.000Z</time>
      </trkpt>
      <trkpt lat="44.562" lon="6.36517">
        <ele>1410.1</ele>
        <time>2026-07-13T11:28:46.000Z</time>
      </trkpt>
      <trkpt lat="44.56205" lon="6.36527">
        <ele>1411.3</ele>
        <time>2026-07-13T11:28:56.000Z</time>
      </trkpt>
      <trkpt lat="44.56213" lon="6.36535">
        <ele>1412.7</ele>
        <time>2026-07-13T11:29:06.000Z</time>
      </trkpt>
      <trkpt lat="44.56221" lon="6.36543">
        <ele>1414.2</ele>
        <time>2026-07-13T11:29:17.000Z</time>
      </trkpt>
      <trkpt lat="44.5623" lon="6.36547">
        <ele>1415.4</ele>
        <time>2026-07-13T11:29:27.000Z</time>
      </trkpt>
      <trkpt lat="44.56238" lon="6.36554">
        <ele>1417</ele>
        <time>2026-07-13T11:29:41.000Z</time>
      </trkpt>
      <trkpt lat="44.56247" lon="6.36558">
        <ele>1418.9</ele>
        <time>2026-07-13T11:29:55.000Z</time>
      </trkpt>
      <trkpt lat="44.56255" lon="6.36564">
        <ele>1420.1</ele>
        <time>2026-07-13T11:30:08.000Z</time>
      </trkpt>
      <trkpt lat="44.56265" lon="6.36564">
        <ele>1421.1</ele>
        <time>2026-07-13T11:30:23.000Z</time>
      </trkpt>
      <trkpt lat="44.56274" lon="6.36566">
        <ele>1422.1</ele>
        <time>2026-07-13T11:30:34.000Z</time>
      </trkpt>
      <trkpt lat="44.56283" lon="6.3657">
        <ele>1422.8</ele>
        <time>2026-07-13T11:30:44.000Z</time>
      </trkpt>
      <trkpt lat="44.56292" lon="6.36574">
        <ele>1423.6</ele>
        <time>2026-07-13T11:30:57.000Z</time>
      </trkpt>
      <trkpt lat="44.56301" lon="6.36575">
        <ele>1424.6</ele>
        <time>2026-07-13T11:31:08.000Z</time>
      </trkpt>
      <trkpt lat="44.56309" lon="6.3658">
        <ele>1425.7</ele>
        <time>2026-07-13T11:31:19.000Z</time>
      </trkpt>
      <trkpt lat="44.56319" lon="6.36585">
        <ele>1426.4</ele>
        <time>2026-07-13T11:31:27.000Z</time>
      </trkpt>
      <trkpt lat="44.56326" lon="6.36592">
        <ele>1426.8</ele>
        <time>2026-07-13T11:31:37.000Z</time>
      </trkpt>
      <trkpt lat="44.56336" lon="6.36595">
        <ele>1426.9</ele>
        <time>2026-07-13T11:31:45.000Z</time>
      </trkpt>
      <trkpt lat="44.56345" lon="6.36596">
        <ele>1426.9</ele>
        <time>2026-07-13T11:31:55.000Z</time>
      </trkpt>
      <trkpt lat="44.56353" lon="6.36602">
        <ele>1427</ele>
        <time>2026-07-13T11:32:06.000Z</time>
      </trkpt>
      <trkpt lat="44.56362" lon="6.36605">
        <ele>1427.1</ele>
        <time>2026-07-13T11:32:13.000Z</time>
      </trkpt>
      <trkpt lat="44.56372" lon="6.3661">
        <ele>1427.7</ele>
        <time>2026-07-13T11:32:22.000Z</time>
      </trkpt>
      <trkpt lat="44.5638" lon="6.36616">
        <ele>1428.4</ele>
        <time>2026-07-13T11:32:29.000Z</time>
      </trkpt>
      <trkpt lat="44.56387" lon="6.36624">
        <ele>1429.1</ele>
        <time>2026-07-13T11:32:35.000Z</time>
      </trkpt>
      <trkpt lat="44.56396" lon="6.3663">
        <ele>1429.4</ele>
        <time>2026-07-13T11:32:41.000Z</time>
      </trkpt>
      <trkpt lat="44.56402" lon="6.36641">
        <ele>1429.7</ele>
        <time>2026-07-13T11:32:49.000Z</time>
      </trkpt>
      <trkpt lat="44.56409" lon="6.36649">
        <ele>1430.1</ele>
        <time>2026-07-13T11:32:57.000Z</time>
      </trkpt>
      <trkpt lat="44.56417" lon="6.36658">
        <ele>1430.6</ele>
        <time>2026-07-13T11:33:05.000Z</time>
      </trkpt>
      <trkpt lat="44.56424" lon="6.36667">
        <ele>1430.9</ele>
        <time>2026-07-13T11:33:13.000Z</time>
      </trkpt>
      <trkpt lat="44.56431" lon="6.36677">
        <ele>1431.3</ele>
        <time>2026-07-13T11:33:21.000Z</time>
      </trkpt>
      <trkpt lat="44.56438" lon="6.36686">
        <ele>1431.9</ele>
        <time>2026-07-13T11:33:30.000Z</time>
      </trkpt>
      <trkpt lat="44.56443" lon="6.36696">
        <ele>1432.6</ele>
        <time>2026-07-13T11:33:39.000Z</time>
      </trkpt>
      <trkpt lat="44.56452" lon="6.36703">
        <ele>1433.8</ele>
        <time>2026-07-13T11:33:49.000Z</time>
      </trkpt>
      <trkpt lat="44.56461" lon="6.36706">
        <ele>1435</ele>
        <time>2026-07-13T11:33:59.000Z</time>
      </trkpt>
      <trkpt lat="44.56469" lon="6.36715">
        <ele>1435.6</ele>
        <time>2026-07-13T11:34:08.000Z</time>
      </trkpt>
      <trkpt lat="44.56476" lon="6.36724">
        <ele>1436.2</ele>
        <time>2026-07-13T11:34:17.000Z</time>
      </trkpt>
      <trkpt lat="44.56484" lon="6.36732">
        <ele>1436.5</ele>
        <time>2026-07-13T11:34:25.000Z</time>
      </trkpt>
      <trkpt lat="44.56492" lon="6.36741">
        <ele>1436.5</ele>
        <time>2026-07-13T11:34:34.000Z</time>
      </trkpt>
      <trkpt lat="44.565" lon="6.36748">
        <ele>1436.6</ele>
        <time>2026-07-13T11:34:42.000Z</time>
      </trkpt>
      <trkpt lat="44.56508" lon="6.36754">
        <ele>1436.8</ele>
        <time>2026-07-13T11:34:50.000Z</time>
      </trkpt>
      <trkpt lat="44.56515" lon="6.36762">
        <ele>1437.1</ele>
        <time>2026-07-13T11:34:57.000Z</time>
      </trkpt>
      <trkpt lat="44.56524" lon="6.36768">
        <ele>1437.4</ele>
        <time>2026-07-13T11:35:05.000Z</time>
      </trkpt>
      <trkpt lat="44.56532" lon="6.36776">
        <ele>1437.6</ele>
        <time>2026-07-13T11:35:13.000Z</time>
      </trkpt>
      <trkpt lat="44.56541" lon="6.36782">
        <ele>1437.7</ele>
        <time>2026-07-13T11:35:21.000Z</time>
      </trkpt>
      <trkpt lat="44.5655" lon="6.36787">
        <ele>1437.5</ele>
        <time>2026-07-13T11:35:30.000Z</time>
      </trkpt>
      <trkpt lat="44.56558" lon="6.36792">
        <ele>1437.4</ele>
        <time>2026-07-13T11:35:38.000Z</time>
      </trkpt>
      <trkpt lat="44.56568" lon="6.36798">
        <ele>1437.3</ele>
        <time>2026-07-13T11:35:47.000Z</time>
      </trkpt>
      <trkpt lat="44.56577" lon="6.36804">
        <ele>1437.2</ele>
        <time>2026-07-13T11:35:56.000Z</time>
      </trkpt>
      <trkpt lat="44.56586" lon="6.3681">
        <ele>1437.1</ele>
        <time>2026-07-13T11:36:05.000Z</time>
      </trkpt>
      <trkpt lat="44.56595" lon="6.36816">
        <ele>1437.2</ele>
        <time>2026-07-13T11:36:17.000Z</time>
      </trkpt>
      <trkpt lat="44.56603" lon="6.36824">
        <ele>1437.5</ele>
        <time>2026-07-13T11:36:27.000Z</time>
      </trkpt>
      <trkpt lat="44.56611" lon="6.36831">
        <ele>1437.7</ele>
        <time>2026-07-13T11:36:35.000Z</time>
      </trkpt>
      <trkpt lat="44.56619" lon="6.3684">
        <ele>1437.8</ele>
        <time>2026-07-13T11:36:44.000Z</time>
      </trkpt>
      <trkpt lat="44.56627" lon="6.36847">
        <ele>1438</ele>
        <time>2026-07-13T11:36:54.000Z</time>
      </trkpt>
      <trkpt lat="44.56635" lon="6.36854">
        <ele>1438.6</ele>
        <time>2026-07-13T11:37:04.000Z</time>
      </trkpt>
      <trkpt lat="44.56643" lon="6.36861">
        <ele>1440</ele>
        <time>2026-07-13T11:37:22.000Z</time>
      </trkpt>
      <trkpt lat="44.56651" lon="6.36871">
        <ele>1441</ele>
        <time>2026-07-13T11:37:34.000Z</time>
      </trkpt>
      <trkpt lat="44.56658" lon="6.36879">
        <ele>1443</ele>
        <time>2026-07-13T11:37:48.000Z</time>
      </trkpt>
      <trkpt lat="44.56665" lon="6.36887">
        <ele>1444.7</ele>
        <time>2026-07-13T11:38:00.000Z</time>
      </trkpt>
      <trkpt lat="44.56671" lon="6.36897">
        <ele>1445</ele>
        <time>2026-07-13T11:38:10.000Z</time>
      </trkpt>
      <trkpt lat="44.56678" lon="6.36905">
        <ele>1445.6</ele>
        <time>2026-07-13T11:38:20.000Z</time>
      </trkpt>
      <trkpt lat="44.56684" lon="6.36915">
        <ele>1446.9</ele>
        <time>2026-07-13T11:38:31.000Z</time>
      </trkpt>
      <trkpt lat="44.56691" lon="6.36922">
        <ele>1447.9</ele>
        <time>2026-07-13T11:38:41.000Z</time>
      </trkpt>
      <trkpt lat="44.567" lon="6.36927">
        <ele>1448.5</ele>
        <time>2026-07-13T11:38:50.000Z</time>
      </trkpt>
      <trkpt lat="44.56709" lon="6.3693">
        <ele>1448.8</ele>
        <time>2026-07-13T11:38:59.000Z</time>
      </trkpt>
      <trkpt lat="44.56719" lon="6.36933">
        <ele>1449.3</ele>
        <time>2026-07-13T11:39:10.000Z</time>
      </trkpt>
      <trkpt lat="44.56729" lon="6.36935">
        <ele>1450</ele>
        <time>2026-07-13T11:39:20.000Z</time>
      </trkpt>
      <trkpt lat="44.56738" lon="6.36939">
        <ele>1450.7</ele>
        <time>2026-07-13T11:39:29.000Z</time>
      </trkpt>
      <trkpt lat="44.56747" lon="6.36937">
        <ele>1451.3</ele>
        <time>2026-07-13T11:39:38.000Z</time>
      </trkpt>
      <trkpt lat="44.56757" lon="6.36937">
        <ele>1451.7</ele>
        <time>2026-07-13T11:39:48.000Z</time>
      </trkpt>
      <trkpt lat="44.56767" lon="6.36936">
        <ele>1451.7</ele>
        <time>2026-07-13T11:39:57.000Z</time>
      </trkpt>
      <trkpt lat="44.56777" lon="6.36936">
        <ele>1451.4</ele>
        <time>2026-07-13T11:40:06.000Z</time>
      </trkpt>
      <trkpt lat="44.56786" lon="6.36932">
        <ele>1451.4</ele>
        <time>2026-07-13T11:40:16.000Z</time>
      </trkpt>
      <trkpt lat="44.56795" lon="6.36929">
        <ele>1452</ele>
        <time>2026-07-13T11:40:26.000Z</time>
      </trkpt>
      <trkpt lat="44.56805" lon="6.36929">
        <ele>1453.1</ele>
        <time>2026-07-13T11:40:39.000Z</time>
      </trkpt>
      <trkpt lat="44.56814" lon="6.36929">
        <ele>1453.8</ele>
        <time>2026-07-13T11:40:49.000Z</time>
      </trkpt>
      <trkpt lat="44.56823" lon="6.36927">
        <ele>1454.7</ele>
        <time>2026-07-13T11:40:59.000Z</time>
      </trkpt>
      <trkpt lat="44.56832" lon="6.36927">
        <ele>1456.1</ele>
        <time>2026-07-13T11:41:10.000Z</time>
      </trkpt>
      <trkpt lat="44.56841" lon="6.36926">
        <ele>1457.8</ele>
        <time>2026-07-13T11:41:22.000Z</time>
      </trkpt>
      <trkpt lat="44.56851" lon="6.36925">
        <ele>1459.9</ele>
        <time>2026-07-13T11:41:35.000Z</time>
      </trkpt>
      <trkpt lat="44.5686" lon="6.36923">
        <ele>1461.5</ele>
        <time>2026-07-13T11:41:46.000Z</time>
      </trkpt>
      <trkpt lat="44.56869" lon="6.3692">
        <ele>1462.5</ele>
        <time>2026-07-13T11:41:55.000Z</time>
      </trkpt>
      <trkpt lat="44.56876" lon="6.36916">
        <ele>1463.2</ele>
        <time>2026-07-13T11:42:47.000Z</time>
      </trkpt>
      <trkpt lat="44.56878" lon="6.36916">
        <ele>1463.1</ele>
        <time>2026-07-13T11:43:02.000Z</time>
      </trkpt>
      <trkpt lat="44.56878" lon="6.36915">
        <ele>1463.1</ele>
        <time>2026-07-13T11:43:12.000Z</time>
      </trkpt>
      <trkpt lat="44.56878" lon="6.36916">
        <ele>1463.1</ele>
        <time>2026-07-13T11:43:30.000Z</time>
      </trkpt>
      <trkpt lat="44.5687" lon="6.36919">
        <ele>1463.2</ele>
        <time>2026-07-13T11:43:59.000Z</time>
      </trkpt>
      <trkpt lat="44.56874" lon="6.3692">
        <ele>1463.2</ele>
        <time>2026-07-13T11:44:25.000Z</time>
      </trkpt>
      <trkpt lat="44.56877" lon="6.36917">
        <ele>1463.6</ele>
        <time>2026-07-13T11:45:29.000Z</time>
      </trkpt>
      <trkpt lat="44.56875" lon="6.36917">
        <ele>1463.6</ele>
        <time>2026-07-13T11:45:45.000Z</time>
      </trkpt>
      <trkpt lat="44.56877" lon="6.36916">
        <ele>1463.6</ele>
        <time>2026-07-13T11:46:31.000Z</time>
      </trkpt>
      <trkpt lat="44.56877" lon="6.36916">
        <ele>1463.6</ele>
        <time>2026-07-13T11:46:47.000Z</time>
      </trkpt>
      <trkpt lat="44.56877" lon="6.36916">
        <ele>1463.6</ele>
        <time>2026-07-13T11:46:55.000Z</time>
      </trkpt>
      <trkpt lat="44.56877" lon="6.36915">
        <ele>1463.5</ele>
        <time>2026-07-13T11:47:07.000Z</time>
      </trkpt>
      <trkpt lat="44.56876" lon="6.3692">
        <ele>1463.6</ele>
        <time>2026-07-13T11:48:49.000Z</time>
      </trkpt>
      <trkpt lat="44.56876" lon="6.3692">
        <ele>1463.6</ele>
        <time>2026-07-13T11:49:00.000Z</time>
      </trkpt>
      <trkpt lat="44.56876" lon="6.3692">
        <ele>1463.6</ele>
        <time>2026-07-13T11:49:44.000Z</time>
      </trkpt>
      <trkpt lat="44.56876" lon="6.36919">
        <ele>1463.6</ele>
        <time>2026-07-13T11:49:47.000Z</time>
      </trkpt>
      <trkpt lat="44.56876" lon="6.36919">
        <ele>1463.7</ele>
        <time>2026-07-13T11:50:52.000Z</time>
      </trkpt>
      <trkpt lat="44.56876" lon="6.36918">
        <ele>1463.7</ele>
        <time>2026-07-13T11:51:01.000Z</time>
      </trkpt>
      <trkpt lat="44.56885" lon="6.36918">
        <ele>1463.8</ele>
        <time>2026-07-13T11:51:41.000Z</time>
      </trkpt>
      <trkpt lat="44.56894" lon="6.36915">
        <ele>1463.8</ele>
        <time>2026-07-13T11:51:50.000Z</time>
      </trkpt>
      <trkpt lat="44.56904" lon="6.36914">
        <ele>1463.9</ele>
        <time>2026-07-13T11:51:59.000Z</time>
      </trkpt>
      <trkpt lat="44.56914" lon="6.36913">
        <ele>1464</ele>
        <time>2026-07-13T11:52:08.000Z</time>
      </trkpt>
      <trkpt lat="44.56923" lon="6.36914">
        <ele>1464.2</ele>
        <time>2026-07-13T11:52:17.000Z</time>
      </trkpt>
      <trkpt lat="44.56933" lon="6.36914">
        <ele>1464.5</ele>
        <time>2026-07-13T11:52:27.000Z</time>
      </trkpt>
      <trkpt lat="44.56942" lon="6.36915">
        <ele>1465.2</ele>
        <time>2026-07-13T11:52:37.000Z</time>
      </trkpt>
      <trkpt lat="44.56952" lon="6.36916">
        <ele>1466.4</ele>
        <time>2026-07-13T11:52:48.000Z</time>
      </trkpt>
      <trkpt lat="44.56961" lon="6.36919">
        <ele>1468</ele>
        <time>2026-07-13T11:52:58.000Z</time>
      </trkpt>
      <trkpt lat="44.5697" lon="6.36924">
        <ele>1469.3</ele>
        <time>2026-07-13T11:53:08.000Z</time>
      </trkpt>
      <trkpt lat="44.56979" lon="6.3693">
        <ele>1470.1</ele>
        <time>2026-07-13T11:53:18.000Z</time>
      </trkpt>
      <trkpt lat="44.56988" lon="6.36933">
        <ele>1470.8</ele>
        <time>2026-07-13T11:53:27.000Z</time>
      </trkpt>
      <trkpt lat="44.56997" lon="6.36939">
        <ele>1471.6</ele>
        <time>2026-07-13T11:53:37.000Z</time>
      </trkpt>
      <trkpt lat="44.57007" lon="6.36941">
        <ele>1472.4</ele>
        <time>2026-07-13T11:53:48.000Z</time>
      </trkpt>
      <trkpt lat="44.57016" lon="6.36936">
        <ele>1473.2</ele>
        <time>2026-07-13T11:53:58.000Z</time>
      </trkpt>
      <trkpt lat="44.57024" lon="6.3693">
        <ele>1474</ele>
        <time>2026-07-13T11:54:08.000Z</time>
      </trkpt>
      <trkpt lat="44.57031" lon="6.36923">
        <ele>1475.2</ele>
        <time>2026-07-13T11:54:18.000Z</time>
      </trkpt>
      <trkpt lat="44.5704" lon="6.36917">
        <ele>1476.6</ele>
        <time>2026-07-13T11:54:30.000Z</time>
      </trkpt>
      <trkpt lat="44.57047" lon="6.36911">
        <ele>1478</ele>
        <time>2026-07-13T11:54:43.000Z</time>
      </trkpt>
      <trkpt lat="44.57056" lon="6.36904">
        <ele>1478.3</ele>
        <time>2026-07-13T11:54:52.000Z</time>
      </trkpt>
      <trkpt lat="44.57064" lon="6.36898">
        <ele>1478.4</ele>
        <time>2026-07-13T11:54:59.000Z</time>
      </trkpt>
      <trkpt lat="44.57073" lon="6.36894">
        <ele>1478.4</ele>
        <time>2026-07-13T11:55:07.000Z</time>
      </trkpt>
      <trkpt lat="44.57082" lon="6.36891">
        <ele>1478.4</ele>
        <time>2026-07-13T11:55:14.000Z</time>
      </trkpt>
      <trkpt lat="44.57092" lon="6.36888">
        <ele>1478.4</ele>
        <time>2026-07-13T11:55:23.000Z</time>
      </trkpt>
      <trkpt lat="44.57101" lon="6.36885">
        <ele>1478.5</ele>
        <time>2026-07-13T11:55:31.000Z</time>
      </trkpt>
      <trkpt lat="44.5711" lon="6.36884">
        <ele>1478.5</ele>
        <time>2026-07-13T11:55:38.000Z</time>
      </trkpt>
      <trkpt lat="44.57119" lon="6.36882">
        <ele>1478.5</ele>
        <time>2026-07-13T11:55:46.000Z</time>
      </trkpt>
      <trkpt lat="44.57129" lon="6.36879">
        <ele>1478.5</ele>
        <time>2026-07-13T11:55:55.000Z</time>
      </trkpt>
      <trkpt lat="44.57138" lon="6.36879">
        <ele>1478.4</ele>
        <time>2026-07-13T11:56:02.000Z</time>
      </trkpt>
      <trkpt lat="44.57147" lon="6.36875">
        <ele>1478.3</ele>
        <time>2026-07-13T11:56:10.000Z</time>
      </trkpt>
      <trkpt lat="44.57157" lon="6.36872">
        <ele>1478.1</ele>
        <time>2026-07-13T11:56:19.000Z</time>
      </trkpt>
      <trkpt lat="44.57166" lon="6.36871">
        <ele>1478.1</ele>
        <time>2026-07-13T11:56:27.000Z</time>
      </trkpt>
      <trkpt lat="44.57175" lon="6.36867">
        <ele>1478.3</ele>
        <time>2026-07-13T11:56:35.000Z</time>
      </trkpt>
      <trkpt lat="44.57184" lon="6.36867">
        <ele>1478.7</ele>
        <time>2026-07-13T11:56:43.000Z</time>
      </trkpt>
      <trkpt lat="44.57193" lon="6.36865">
        <ele>1479.2</ele>
        <time>2026-07-13T11:56:51.000Z</time>
      </trkpt>
      <trkpt lat="44.57203" lon="6.36867">
        <ele>1479.8</ele>
        <time>2026-07-13T11:57:02.000Z</time>
      </trkpt>
      <trkpt lat="44.57212" lon="6.36864">
        <ele>1480.4</ele>
        <time>2026-07-13T11:57:11.000Z</time>
      </trkpt>
      <trkpt lat="44.57222" lon="6.36862">
        <ele>1480.7</ele>
        <time>2026-07-13T11:57:19.000Z</time>
      </trkpt>
      <trkpt lat="44.57231" lon="6.36857">
        <ele>1480.8</ele>
        <time>2026-07-13T11:57:28.000Z</time>
      </trkpt>
      <trkpt lat="44.5724" lon="6.36855">
        <ele>1480.7</ele>
        <time>2026-07-13T11:57:37.000Z</time>
      </trkpt>
      <trkpt lat="44.57249" lon="6.36852">
        <ele>1480.6</ele>
        <time>2026-07-13T11:57:45.000Z</time>
      </trkpt>
      <trkpt lat="44.57254" lon="6.36841">
        <ele>1480.3</ele>
        <time>2026-07-13T11:57:53.000Z</time>
      </trkpt>
      <trkpt lat="44.57262" lon="6.36834">
        <ele>1479.5</ele>
        <time>2026-07-13T11:58:01.000Z</time>
      </trkpt>
      <trkpt lat="44.57271" lon="6.36829">
        <ele>1478.4</ele>
        <time>2026-07-13T11:58:09.000Z</time>
      </trkpt>
      <trkpt lat="44.57279" lon="6.36823">
        <ele>1477.8</ele>
        <time>2026-07-13T11:58:17.000Z</time>
      </trkpt>
      <trkpt lat="44.57287" lon="6.36816">
        <ele>1477.8</ele>
        <time>2026-07-13T11:58:26.000Z</time>
      </trkpt>
      <trkpt lat="44.57296" lon="6.3681">
        <ele>1478.6</ele>
        <time>2026-07-13T11:58:36.000Z</time>
      </trkpt>
      <trkpt lat="44.57304" lon="6.36805">
        <ele>1480.1</ele>
        <time>2026-07-13T11:58:46.000Z</time>
      </trkpt>
      <trkpt lat="44.57312" lon="6.36797">
        <ele>1482</ele>
        <time>2026-07-13T11:58:58.000Z</time>
      </trkpt>
      <trkpt lat="44.57321" lon="6.36797">
        <ele>1484.2</ele>
        <time>2026-07-13T11:59:17.000Z</time>
      </trkpt>
      <trkpt lat="44.5733" lon="6.36797">
        <ele>1484.4</ele>
        <time>2026-07-13T11:59:25.000Z</time>
      </trkpt>
      <trkpt lat="44.57339" lon="6.36792">
        <ele>1484.5</ele>
        <time>2026-07-13T11:59:33.000Z</time>
      </trkpt>
      <trkpt lat="44.57348" lon="6.36784">
        <ele>1484.6</ele>
        <time>2026-07-13T11:59:42.000Z</time>
      </trkpt>
      <trkpt lat="44.57357" lon="6.36779">
        <ele>1484.6</ele>
        <time>2026-07-13T11:59:51.000Z</time>
      </trkpt>
      <trkpt lat="44.57367" lon="6.36777">
        <ele>1484.6</ele>
        <time>2026-07-13T11:59:58.000Z</time>
      </trkpt>
      <trkpt lat="44.57376" lon="6.36778">
        <ele>1484.4</ele>
        <time>2026-07-13T12:00:07.000Z</time>
      </trkpt>
      <trkpt lat="44.57384" lon="6.36782">
        <ele>1483.9</ele>
        <time>2026-07-13T12:00:15.000Z</time>
      </trkpt>
      <trkpt lat="44.57394" lon="6.36783">
        <ele>1482.6</ele>
        <time>2026-07-13T12:00:25.000Z</time>
      </trkpt>
      <trkpt lat="44.57404" lon="6.36779">
        <ele>1481</ele>
        <time>2026-07-13T12:00:35.000Z</time>
      </trkpt>
      <trkpt lat="44.57413" lon="6.36775">
        <ele>1480.1</ele>
        <time>2026-07-13T12:00:43.000Z</time>
      </trkpt>
      <trkpt lat="44.57423" lon="6.36774">
        <ele>1479.3</ele>
        <time>2026-07-13T12:00:52.000Z</time>
      </trkpt>
      <trkpt lat="44.57433" lon="6.3677">
        <ele>1478.9</ele>
        <time>2026-07-13T12:01:01.000Z</time>
      </trkpt>
      <trkpt lat="44.5744" lon="6.36763">
        <ele>1478.6</ele>
        <time>2026-07-13T12:01:09.000Z</time>
      </trkpt>
      <trkpt lat="44.57449" lon="6.36758">
        <ele>1478.4</ele>
        <time>2026-07-13T12:01:18.000Z</time>
      </trkpt>
      <trkpt lat="44.57459" lon="6.36755">
        <ele>1478.4</ele>
        <time>2026-07-13T12:01:28.000Z</time>
      </trkpt>
      <trkpt lat="44.57469" lon="6.36756">
        <ele>1478.4</ele>
        <time>2026-07-13T12:01:37.000Z</time>
      </trkpt>
      <trkpt lat="44.57479" lon="6.36755">
        <ele>1478.6</ele>
        <time>2026-07-13T12:01:46.000Z</time>
      </trkpt>
      <trkpt lat="44.57488" lon="6.36758">
        <ele>1478.7</ele>
        <time>2026-07-13T12:01:55.000Z</time>
      </trkpt>
      <trkpt lat="44.57498" lon="6.36757">
        <ele>1478.7</ele>
        <time>2026-07-13T12:02:05.000Z</time>
      </trkpt>
      <trkpt lat="44.57506" lon="6.36764">
        <ele>1478.7</ele>
        <time>2026-07-13T12:02:17.000Z</time>
      </trkpt>
      <trkpt lat="44.57515" lon="6.36769">
        <ele>1478.5</ele>
        <time>2026-07-13T12:02:27.000Z</time>
      </trkpt>
      <trkpt lat="44.57524" lon="6.36769">
        <ele>1478.5</ele>
        <time>2026-07-13T12:02:38.000Z</time>
      </trkpt>
      <trkpt lat="44.57534" lon="6.36769">
        <ele>1478.8</ele>
        <time>2026-07-13T12:02:48.000Z</time>
      </trkpt>
      <trkpt lat="44.57543" lon="6.36768">
        <ele>1480.2</ele>
        <time>2026-07-13T12:02:59.000Z</time>
      </trkpt>
      <trkpt lat="44.57552" lon="6.36764">
        <ele>1481.5</ele>
        <time>2026-07-13T12:03:08.000Z</time>
      </trkpt>
      <trkpt lat="44.57561" lon="6.36759">
        <ele>1482.4</ele>
        <time>2026-07-13T12:03:17.000Z</time>
      </trkpt>
      <trkpt lat="44.5757" lon="6.36754">
        <ele>1483.2</ele>
        <time>2026-07-13T12:03:26.000Z</time>
      </trkpt>
      <trkpt lat="44.57579" lon="6.36749">
        <ele>1483.9</ele>
        <time>2026-07-13T12:03:36.000Z</time>
      </trkpt>
      <trkpt lat="44.57587" lon="6.36742">
        <ele>1484.5</ele>
        <time>2026-07-13T12:03:45.000Z</time>
      </trkpt>
      <trkpt lat="44.57594" lon="6.36734">
        <ele>1485.1</ele>
        <time>2026-07-13T12:03:54.000Z</time>
      </trkpt>
      <trkpt lat="44.57602" lon="6.36725">
        <ele>1485.8</ele>
        <time>2026-07-13T12:04:03.000Z</time>
      </trkpt>
      <trkpt lat="44.57609" lon="6.36716">
        <ele>1486.4</ele>
        <time>2026-07-13T12:04:12.000Z</time>
      </trkpt>
      <trkpt lat="44.57616" lon="6.36705">
        <ele>1487</ele>
        <time>2026-07-13T12:04:21.000Z</time>
      </trkpt>
      <trkpt lat="44.57622" lon="6.36694">
        <ele>1487.7</ele>
        <time>2026-07-13T12:04:30.000Z</time>
      </trkpt>
      <trkpt lat="44.57628" lon="6.36684">
        <ele>1488.5</ele>
        <time>2026-07-13T12:04:39.000Z</time>
      </trkpt>
      <trkpt lat="44.57634" lon="6.36674">
        <ele>1489.3</ele>
        <time>2026-07-13T12:04:48.000Z</time>
      </trkpt>
      <trkpt lat="44.57639" lon="6.36664">
        <ele>1490.2</ele>
        <time>2026-07-13T12:04:56.000Z</time>
      </trkpt>
      <trkpt lat="44.57645" lon="6.36654">
        <ele>1491.1</ele>
        <time>2026-07-13T12:05:06.000Z</time>
      </trkpt>
      <trkpt lat="44.57651" lon="6.36643">
        <ele>1491.9</ele>
        <time>2026-07-13T12:05:15.000Z</time>
      </trkpt>
      <trkpt lat="44.57657" lon="6.36633">
        <ele>1492.7</ele>
        <time>2026-07-13T12:05:25.000Z</time>
      </trkpt>
      <trkpt lat="44.57663" lon="6.36624">
        <ele>1493.4</ele>
        <time>2026-07-13T12:05:34.000Z</time>
      </trkpt>
      <trkpt lat="44.57671" lon="6.36614">
        <ele>1494.3</ele>
        <time>2026-07-13T12:05:44.000Z</time>
      </trkpt>
      <trkpt lat="44.57679" lon="6.36607">
        <ele>1495</ele>
        <time>2026-07-13T12:05:53.000Z</time>
      </trkpt>
      <trkpt lat="44.57688" lon="6.36603">
        <ele>1495.7</ele>
        <time>2026-07-13T12:06:03.000Z</time>
      </trkpt>
      <trkpt lat="44.57696" lon="6.36594">
        <ele>1496.6</ele>
        <time>2026-07-13T12:06:17.000Z</time>
      </trkpt>
      <trkpt lat="44.57699" lon="6.36583">
        <ele>1497.7</ele>
        <time>2026-07-13T12:06:28.000Z</time>
      </trkpt>
      <trkpt lat="44.57695" lon="6.3657">
        <ele>1499</ele>
        <time>2026-07-13T12:06:39.000Z</time>
      </trkpt>
      <trkpt lat="44.57692" lon="6.36557">
        <ele>1500.1</ele>
        <time>2026-07-13T12:06:50.000Z</time>
      </trkpt>
      <trkpt lat="44.57683" lon="6.36551">
        <ele>1500.8</ele>
        <time>2026-07-13T12:07:00.000Z</time>
      </trkpt>
      <trkpt lat="44.57674" lon="6.36548">
        <ele>1501.7</ele>
        <time>2026-07-13T12:07:10.000Z</time>
      </trkpt>
      <trkpt lat="44.57665" lon="6.36547">
        <ele>1502.5</ele>
        <time>2026-07-13T12:07:19.000Z</time>
      </trkpt>
      <trkpt lat="44.57656" lon="6.36548">
        <ele>1503.3</ele>
        <time>2026-07-13T12:07:28.000Z</time>
      </trkpt>
      <trkpt lat="44.57647" lon="6.3655">
        <ele>1504.2</ele>
        <time>2026-07-13T12:07:37.000Z</time>
      </trkpt>
      <trkpt lat="44.57637" lon="6.36552">
        <ele>1505.1</ele>
        <time>2026-07-13T12:07:47.000Z</time>
      </trkpt>
      <trkpt lat="44.57628" lon="6.36555">
        <ele>1506.2</ele>
        <time>2026-07-13T12:07:57.000Z</time>
      </trkpt>
      <trkpt lat="44.57618" lon="6.36559">
        <ele>1507.4</ele>
        <time>2026-07-13T12:08:08.000Z</time>
      </trkpt>
      <trkpt lat="44.57609" lon="6.36563">
        <ele>1509.3</ele>
        <time>2026-07-13T12:08:28.000Z</time>
      </trkpt>
      <trkpt lat="44.576" lon="6.36567">
        <ele>1510.2</ele>
        <time>2026-07-13T12:08:38.000Z</time>
      </trkpt>
      <trkpt lat="44.57591" lon="6.3657">
        <ele>1511.3</ele>
        <time>2026-07-13T12:08:48.000Z</time>
      </trkpt>
      <trkpt lat="44.57582" lon="6.36573">
        <ele>1513.1</ele>
        <time>2026-07-13T12:09:10.000Z</time>
      </trkpt>
      <trkpt lat="44.57573" lon="6.36575">
        <ele>1513.9</ele>
        <time>2026-07-13T12:09:20.000Z</time>
      </trkpt>
      <trkpt lat="44.57564" lon="6.36577">
        <ele>1515</ele>
        <time>2026-07-13T12:09:33.000Z</time>
      </trkpt>
      <trkpt lat="44.57554" lon="6.36576">
        <ele>1516.1</ele>
        <time>2026-07-13T12:09:44.000Z</time>
      </trkpt>
      <trkpt lat="44.57544" lon="6.36576">
        <ele>1517.1</ele>
        <time>2026-07-13T12:09:54.000Z</time>
      </trkpt>
      <trkpt lat="44.57535" lon="6.36575">
        <ele>1517.9</ele>
        <time>2026-07-13T12:10:04.000Z</time>
      </trkpt>
      <trkpt lat="44.5753" lon="6.36564">
        <ele>1518.6</ele>
        <time>2026-07-13T12:10:14.000Z</time>
      </trkpt>
      <trkpt lat="44.57522" lon="6.36557">
        <ele>1519.5</ele>
        <time>2026-07-13T12:10:28.000Z</time>
      </trkpt>
      <trkpt lat="44.57513" lon="6.36554">
        <ele>1522.5</ele>
        <time>2026-07-13T12:10:46.000Z</time>
      </trkpt>
      <trkpt lat="44.57506" lon="6.36546">
        <ele>1525.7</ele>
        <time>2026-07-13T12:11:13.000Z</time>
      </trkpt>
      <trkpt lat="44.57497" lon="6.36541">
        <ele>1527.1</ele>
        <time>2026-07-13T12:11:28.000Z</time>
      </trkpt>
      <trkpt lat="44.57489" lon="6.36535">
        <ele>1530.8</ele>
        <time>2026-07-13T12:11:53.000Z</time>
      </trkpt>
      <trkpt lat="44.57482" lon="6.36525">
        <ele>1531.9</ele>
        <time>2026-07-13T12:12:09.000Z</time>
      </trkpt>
      <trkpt lat="44.57476" lon="6.36515">
        <ele>1532.6</ele>
        <time>2026-07-13T12:12:21.000Z</time>
      </trkpt>
      <trkpt lat="44.57466" lon="6.36513">
        <ele>1534</ele>
        <time>2026-07-13T12:12:37.000Z</time>
      </trkpt>
      <trkpt lat="44.57457" lon="6.36513">
        <ele>1534.4</ele>
        <time>2026-07-13T12:12:46.000Z</time>
      </trkpt>
      <trkpt lat="44.57455" lon="6.365">
        <ele>1534.6</ele>
        <time>2026-07-13T12:12:54.000Z</time>
      </trkpt>
      <trkpt lat="44.57454" lon="6.36487">
        <ele>1534.6</ele>
        <time>2026-07-13T12:13:02.000Z</time>
      </trkpt>
      <trkpt lat="44.57453" lon="6.36473">
        <ele>1534.8</ele>
        <time>2026-07-13T12:13:11.000Z</time>
      </trkpt>
      <trkpt lat="44.57452" lon="6.3646">
        <ele>1534.9</ele>
        <time>2026-07-13T12:13:19.000Z</time>
      </trkpt>
      <trkpt lat="44.57453" lon="6.36446">
        <ele>1535.1</ele>
        <time>2026-07-13T12:13:27.000Z</time>
      </trkpt>
      <trkpt lat="44.57454" lon="6.36433">
        <ele>1535.4</ele>
        <time>2026-07-13T12:13:35.000Z</time>
      </trkpt>
      <trkpt lat="44.57457" lon="6.36421">
        <ele>1535.8</ele>
        <time>2026-07-13T12:13:43.000Z</time>
      </trkpt>
      <trkpt lat="44.57462" lon="6.3641">
        <ele>1536.2</ele>
        <time>2026-07-13T12:13:51.000Z</time>
      </trkpt>
      <trkpt lat="44.57469" lon="6.36401">
        <ele>1536.7</ele>
        <time>2026-07-13T12:13:59.000Z</time>
      </trkpt>
      <trkpt lat="44.57473" lon="6.36389">
        <ele>1537.2</ele>
        <time>2026-07-13T12:14:08.000Z</time>
      </trkpt>
      <trkpt lat="44.5748" lon="6.36379">
        <ele>1537.7</ele>
        <time>2026-07-13T12:14:17.000Z</time>
      </trkpt>
      <trkpt lat="44.57487" lon="6.36369">
        <ele>1538.2</ele>
        <time>2026-07-13T12:14:26.000Z</time>
      </trkpt>
      <trkpt lat="44.57493" lon="6.36359">
        <ele>1538.5</ele>
        <time>2026-07-13T12:14:34.000Z</time>
      </trkpt>
      <trkpt lat="44.57499" lon="6.36349">
        <ele>1538.9</ele>
        <time>2026-07-13T12:14:42.000Z</time>
      </trkpt>
      <trkpt lat="44.57505" lon="6.36338">
        <ele>1539.3</ele>
        <time>2026-07-13T12:14:51.000Z</time>
      </trkpt>
      <trkpt lat="44.57512" lon="6.36327">
        <ele>1539.8</ele>
        <time>2026-07-13T12:15:00.000Z</time>
      </trkpt>
      <trkpt lat="44.57517" lon="6.36316">
        <ele>1540.2</ele>
        <time>2026-07-13T12:15:07.000Z</time>
      </trkpt>
      <trkpt lat="44.57523" lon="6.36306">
        <ele>1540.7</ele>
        <time>2026-07-13T12:15:16.000Z</time>
      </trkpt>
      <trkpt lat="44.5753" lon="6.36297">
        <ele>1541</ele>
        <time>2026-07-13T12:15:24.000Z</time>
      </trkpt>
      <trkpt lat="44.57537" lon="6.36288">
        <ele>1541.4</ele>
        <time>2026-07-13T12:15:32.000Z</time>
      </trkpt>
      <trkpt lat="44.57543" lon="6.36278">
        <ele>1541.8</ele>
        <time>2026-07-13T12:15:41.000Z</time>
      </trkpt>
      <trkpt lat="44.57549" lon="6.36267">
        <ele>1542.2</ele>
        <time>2026-07-13T12:15:49.000Z</time>
      </trkpt>
      <trkpt lat="44.57554" lon="6.36256">
        <ele>1542.6</ele>
        <time>2026-07-13T12:15:57.000Z</time>
      </trkpt>
      <trkpt lat="44.57561" lon="6.36245">
        <ele>1543.1</ele>
        <time>2026-07-13T12:16:06.000Z</time>
      </trkpt>
      <trkpt lat="44.57567" lon="6.36234">
        <ele>1543.4</ele>
        <time>2026-07-13T12:16:14.000Z</time>
      </trkpt>
      <trkpt lat="44.5757" lon="6.36231">
        <ele>1544</ele>
        <time>2026-07-13T12:16:49.000Z</time>
      </trkpt>
      <trkpt lat="44.57571" lon="6.36232">
        <ele>1544</ele>
        <time>2026-07-13T12:16:56.000Z</time>
      </trkpt>
      <trkpt lat="44.57571" lon="6.36232">
        <ele>1543.9</ele>
        <time>2026-07-13T12:17:14.000Z</time>
      </trkpt>
      <trkpt lat="44.5757" lon="6.3623">
        <ele>1543.9</ele>
        <time>2026-07-13T12:17:40.000Z</time>
      </trkpt>
      <trkpt lat="44.5757" lon="6.36229">
        <ele>1543.9</ele>
        <time>2026-07-13T12:17:51.000Z</time>
      </trkpt>
      <trkpt lat="44.5757" lon="6.3623">
        <ele>1543.9</ele>
        <time>2026-07-13T12:18:02.000Z</time>
      </trkpt>
      <trkpt lat="44.57572" lon="6.3623">
        <ele>1544</ele>
        <time>2026-07-13T12:19:19.100Z</time>
      </trkpt>
      <trkpt lat="44.57572" lon="6.3623">
        <ele>1544</ele>
        <time>2026-07-13T12:19:19.100Z</time>
      </trkpt>
    </trkseg>
  </trk>
</gpx>